Wetterdaten: Montag, 22.11.2021
Datum Zeit Temp. Aussen Temp. o. S. Temp +5cm Feuchte Auss Luftdruck Regen Sonnenschein Regendauer Solar Windben Empfang
22.11.2021 00:00 3,5 C 2,8 C 1,7 C 95 % 1017,6 hPa 0,0 l/m 0 min 0 min 0 W/m 6,4 km/h (2 Bft) 100,00 %
22.11.2021 00:02 3,5 C 2,8 C 1,7 C 95 % 1017,6 hPa 0,0 l/m 0 min 0 min 0 W/m 6,4 km/h (2 Bft) 97,83 %
22.11.2021 00:04 3,5 C 2,8 C 1,7 C 95 % 1017,6 hPa 0,0 l/m 0 min 0 min 0 W/m 0,0 km/h (0 Bft) 97,37 %
22.11.2021 00:08 3,5 C 2,2 C 1,7 C 95 % 1017,7 hPa 0,0 l/m 0 min 0 min 0 W/m 3,2 km/h (1 Bft) 97,94 %
22.11.2021 00:10 3,4 C 2,2 C 1,7 C 95 % 1017,8 hPa 0,0 l/m 0 min 0 min 0 W/m 6,4 km/h (2 Bft) 97,96 %
22.11.2021 00:12 3,4 C 2,2 C 1,7 C 95 % 1017,8 hPa 0,0 l/m 0 min 0 min 0 W/m 6,4 km/h (2 Bft) 97,22 %
22.11.2021 00:14 3,4 C 2,2 C 1,7 C 95 % 1017,8 hPa 0,0 l/m 0 min 0 min 0 W/m 6,4 km/h (2 Bft) 100,00 %
22.11.2021 00:16 3,4 C 2,2 C 1,7 C 95 % 1017,9 hPa 0,0 l/m 0 min 0 min 0 W/m 3,2 km/h (1 Bft) 98,00 %
22.11.2021 00:18 3,4 C 2,2 C 1,7 C 95 % 1017,9 hPa 0,0 l/m 0 min 0 min 0 W/m 6,4 km/h (2 Bft) 97,87 %
22.11.2021 00:20 3,3 C 2,2 C 1,7 C 95 % 1017,9 hPa 0,0 l/m 0 min 0 min 0 W/m 6,4 km/h (2 Bft) 97,14 %
22.11.2021 00:22 3,3 C 2,2 C 1,7 C 95 % 1018,0 hPa 0,0 l/m 0 min 0 min 0 W/m 6,4 km/h (2 Bft) 98,21 %
22.11.2021 00:24 3,3 C 2,2 C 1,7 C 95 % 1018,0 hPa 0,0 l/m 0 min 0 min 0 W/m 0,0 km/h (0 Bft) 93,88 %
22.11.2021 00:26 3,3 C 2,2 C 1,7 C 95 % 1018,0 hPa 0,0 l/m 0 min 0 min 0 W/m 0,0 km/h (0 Bft) 95,74 %
22.11.2021 00:28 3,3 C 2,2 C 1,1 C 95 % 1018,0 hPa 0,0 l/m 0 min 0 min 0 W/m 6,4 km/h (2 Bft) 97,87 %
22.11.2021 00:30 3,2 C 2,2 C 1,1 C 95 % 1018,1 hPa 0,0 l/m 0 min 0 min 0 W/m 6,4 km/h (2 Bft) 100,00 %
22.11.2021 00:32 3,2 C 2,2 C 1,7 C 95 % 1018,1 hPa 0,0 l/m 0 min 0 min 0 W/m 3,2 km/h (1 Bft) 100,00 %
22.11.2021 00:34 3,2 C 2,2 C 1,1 C 95 % 1018,2 hPa 0,0 l/m 0 min 0 min 0 W/m 6,4 km/h (2 Bft) 97,14 %
22.11.2021 00:36 3,2 C 2,2 C 1,7 C 95 % 1018,2 hPa 0,0 l/m 0 min 0 min 0 W/m 3,2 km/h (1 Bft) 100,00 %
22.11.2021 00:38 3,1 C 2,2 C 1,1 C 95 % 1018,3 hPa 0,0 l/m 0 min 0 min 0 W/m 9,7 km/h (2 Bft) 100,00 %
22.11.2021 00:40 3,1 C 2,2 C 1,1 C 95 % 1018,3 hPa 0,0 l/m 0 min 0 min 0 W/m 6,4 km/h (2 Bft) 100,00 %
22.11.2021 00:42 3,1 C 2,2 C 1,7 C 95 % 1018,4 hPa 0,0 l/m 0 min 0 min 0 W/m 3,2 km/h (1 Bft) 100,00 %
22.11.2021 00:44 3,1 C 2,2 C 1,7 C 95 % 1018,3 hPa 0,0 l/m 0 min 0 min 0 W/m 3,2 km/h (1 Bft) 97,87 %
22.11.2021 00:46 3,1 C 2,2 C 1,7 C 95 % 1018,3 hPa 0,0 l/m 0 min 0 min 0 W/m 6,4 km/h (2 Bft) 100,00 %
22.11.2021 00:48 3,1 C 2,2 C 1,7 C 95 % 1018,4 hPa 0,0 l/m 0 min 0 min 0 W/m 3,2 km/h (1 Bft) 100,00 %
22.11.2021 00:50 3,1 C 2,2 C 1,1 C 95 % 1018,4 hPa 0,0 l/m 0 min 0 min 0 W/m 3,2 km/h (1 Bft) 100,00 %
22.11.2021 00:52 3,1 C 2,2 C 1,1 C 95 % 1018,4 hPa 0,0 l/m 0 min 0 min 0 W/m 3,2 km/h (1 Bft) 100,00 %
22.11.2021 00:54 3,0 C 2,2 C 1,1 C 95 % 1018,4 hPa 0,0 l/m 0 min 0 min 0 W/m 3,2 km/h (1 Bft) 98,00 %
22.11.2021 00:56 3,0 C 2,2 C 1,1 C 95 % 1018,5 hPa 0,0 l/m 0 min 0 min 0 W/m 6,4 km/h (2 Bft) 100,00 %
22.11.2021 00:58 3,0 C 2,2 C 1,1 C 95 % 1018,4 hPa 0,0 l/m 0 min 0 min 0 W/m 3,2 km/h (1 Bft) 98,18 %
22.11.2021 01:00 3,0 C 2,2 C 1,1 C 95 % 1018,5 hPa 0,0 l/m 0 min 0 min 0 W/m 6,4 km/h (2 Bft) 100,00 %
22.11.2021 01:02 3,1 C 2,2 C 1,7 C 95 % 1018,5 hPa 0,0 l/m 0 min 0 min 0 W/m 3,2 km/h (1 Bft) 95,74 %
22.11.2021 01:04 3,1 C 2,2 C 1,7 C 95 % 1018,5 hPa 0,0 l/m 0 min 0 min 0 W/m 0,0 km/h (0 Bft) 97,87 %
22.11.2021 01:06 3,1 C 2,2 C 1,7 C 95 % 1018,6 hPa 0,0 l/m 0 min 0 min 0 W/m 0,0 km/h (0 Bft) 97,14 %
22.11.2021 01:08 3,1 C 2,2 C 1,7 C 95 % 1018,6 hPa 0,0 l/m 0 min 0 min 0 W/m 0,0 km/h (0 Bft) 96,23 %
22.11.2021 01:10 3,1 C 2,2 C 1,7 C 95 % 1018,6 hPa 0,0 l/m 0 min 0 min 0 W/m 0,0 km/h (0 Bft) 97,83 %
22.11.2021 01:12 3,1 C 2,2 C 1,7 C 95 % 1018,5 hPa 0,0 l/m 0 min 0 min 0 W/m 0,0 km/h (0 Bft) 97,87 %
22.11.2021 01:14 3,2 C 2,8 C 1,7 C 95 % 1018,6 hPa 0,0 l/m 0 min 0 min 0 W/m 3,2 km/h (1 Bft) 97,87 %
22.11.2021 01:16 3,3 C 2,8 C 1,7 C 95 % 1018,6 hPa 0,0 l/m 0 min 0 min 0 W/m 3,2 km/h (1 Bft) 98,00 %
22.11.2021 01:18 3,3 C 2,8 C 1,7 C 95 % 1018,6 hPa 0,0 l/m 0 min 0 min 0 W/m 6,4 km/h (2 Bft) 96,00 %
22.11.2021 01:20 3,3 C 2,8 C 1,7 C 95 % 1018,6 hPa 0,0 l/m 0 min 0 min 0 W/m 6,4 km/h (2 Bft) 97,83 %
22.11.2021 01:22 3,3 C 2,8 C 1,7 C 95 % 1018,6 hPa 0,0 l/m 0 min 0 min 0 W/m 9,7 km/h (2 Bft) 97,22 %
22.11.2021 01:24 3,3 C 2,8 C 1,7 C 95 % 1018,6 hPa 0,0 l/m 0 min 0 min 0 W/m 3,2 km/h (1 Bft) 96,36 %
22.11.2021 01:26 3,4 C 2,8 C 1,7 C 95 % 1018,7 hPa 0,0 l/m 0 min 0 min 0 W/m 6,4 km/h (2 Bft) 96,00 %
22.11.2021 01:28 3,4 C 2,8 C 1,7 C 95 % 1018,6 hPa 0,0 l/m 0 min 0 min 0 W/m 9,7 km/h (2 Bft) 95,74 %
22.11.2021 01:30 3,4 C 2,8 C 1,7 C 95 % 1018,7 hPa 0,0 l/m 0 min 0 min 0 W/m 3,2 km/h (1 Bft) 94,29 %
22.11.2021 01:32 3,4 C 2,8 C 1,7 C 95 % 1018,7 hPa 0,0 l/m 0 min 0 min 0 W/m 3,2 km/h (1 Bft) 94,55 %
22.11.2021 01:34 3,4 C 2,8 C 1,7 C 95 % 1018,8 hPa 0,0 l/m 0 min 0 min 0 W/m 6,4 km/h (2 Bft) 95,74 %
22.11.2021 01:36 3,4 C 2,2 C 1,7 C 95 % 1018,8 hPa 0,0 l/m 0 min 0 min 0 W/m 3,2 km/h (1 Bft) 95,74 %
22.11.2021 01:38 3,4 C 2,8 C 1,7 C 95 % 1018,8 hPa 0,0 l/m 0 min 0 min 0 W/m 6,4 km/h (2 Bft) 95,74 %
22.11.2021 01:40 3,4 C 2,8 C 1,7 C 95 % 1018,8 hPa 0,0 l/m 0 min 0 min 0 W/m 6,4 km/h (2 Bft) 95,92 %
22.11.2021 01:42 3,4 C 2,2 C 1,7 C 95 % 1018,9 hPa 0,0 l/m 0 min 0 min 0 W/m 3,2 km/h (1 Bft) 97,14 %
22.11.2021 01:44 3,4 C 2,8 C 1,7 C 95 % 1018,9 hPa 0,0 l/m 0 min 0 min 0 W/m 6,4 km/h (2 Bft) 93,62 %
22.11.2021 01:46 3,4 C 2,8 C 1,7 C 95 % 1018,9 hPa 0,2 l/m 0 min 0 min 0 W/m 3,2 km/h (1 Bft) 93,48 %
22.11.2021 01:48 3,4 C 2,8 C 1,7 C 95 % 1019,0 hPa 0,0 l/m 0 min 0 min 0 W/m 9,7 km/h (2 Bft) 91,49 %
22.11.2021 01:50 3,4 C 2,2 C 1,7 C 95 % 1019,0 hPa 0,0 l/m 0 min 0 min 0 W/m 6,4 km/h (2 Bft) 61,11 %
22.11.2021 01:52 3,4 C 2,2 C 1,7 C 95 % 1019,0 hPa 0,0 l/m 0 min 0 min 0 W/m 3,2 km/h (1 Bft) 90,00 %
22.11.2021 01:54 3,4 C 2,2 C 1,7 C 95 % 1019,0 hPa 0,0 l/m 0 min 0 min 0 W/m 3,2 km/h (1 Bft) 95,74 %
22.11.2021 01:56 3,4 C 2,8 C 1,7 C 95 % 1019,0 hPa 0,0 l/m 0 min 0 min 0 W/m 6,4 km/h (2 Bft) 100,00 %
22.11.2021 01:58 3,4 C 2,8 C 1,7 C 95 % 1019,1 hPa 0,0 l/m 0 min 0 min 0 W/m 9,7 km/h (2 Bft) 94,55 %
22.11.2021 02:00 3,3 C 2,8 C 1,7 C 95 % 1019,1 hPa 0,0 l/m 0 min 0 min 0 W/m 3,2 km/h (1 Bft) 94,00 %
22.11.2021 02:02 3,3 C 2,8 C 1,7 C 95 % 1019,1 hPa 0,0 l/m 0 min 0 min 0 W/m 9,7 km/h (2 Bft) 95,74 %
22.11.2021 02:04 3,4 C 2,8 C 1,7 C 95 % 1019,2 hPa 0,0 l/m 0 min 0 min 0 W/m 9,7 km/h (2 Bft) 94,74 %
22.11.2021 02:06 3,4 C 2,8 C 1,7 C 95 % 1019,3 hPa 0,0 l/m 0 min 0 min 0 W/m 3,2 km/h (1 Bft) 97,87 %
22.11.2021 02:08 3,4 C 2,8 C 1,7 C 95 % 1019,3 hPa 0,0 l/m 0 min 0 min 0 W/m 6,4 km/h (2 Bft) 97,87 %
22.11.2021 02:10 3,4 C 2,8 C 1,7 C 95 % 1019,3 hPa 0,0 l/m 0 min 0 min 0 W/m 6,4 km/h (2 Bft) 93,48 %
22.11.2021 02:12 3,4 C 2,8 C 1,7 C 95 % 1019,3 hPa 0,0 l/m 0 min 0 min 0 W/m 9,7 km/h (2 Bft) 97,87 %
22.11.2021 02:14 3,4 C 2,8 C 1,7 C 96 % 1019,4 hPa 0,0 l/m 0 min 0 min 0 W/m 9,7 km/h (2 Bft) 98,21 %
22.11.2021 02:16 3,4 C 2,8 C 1,7 C 96 % 1019,4 hPa 0,0 l/m 0 min 0 min 0 W/m 9,7 km/h (2 Bft) 100,00 %
22.11.2021 02:18 3,4 C 2,8 C 1,7 C 96 % 1019,4 hPa 0,0 l/m 0 min 0 min 0 W/m 3,2 km/h (1 Bft) 100,00 %
22.11.2021 02:20 3,4 C 2,8 C 1,7 C 96 % 1019,5 hPa 0,0 l/m 0 min 0 min 0 W/m 6,4 km/h (2 Bft) 100,00 %
22.11.2021 02:22 3,4 C 2,8 C 1,7 C 96 % 1019,5 hPa 0,0 l/m 0 min 0 min 0 W/m 12,9 km/h (3 Bft) 100,00 %
22.11.2021 02:24 3,5 C 2,8 C 1,7 C 96 % 1019,5 hPa 0,0 l/m 0 min 0 min 0 W/m 9,7 km/h (2 Bft) 100,00 %
22.11.2021 02:26 3,5 C 3,3 C 2,2 C 96 % 1019,5 hPa 0,0 l/m 0 min 0 min 0 W/m 3,2 km/h (1 Bft) 97,87 %
22.11.2021 02:28 3,6 C 3,3 C 2,2 C 96 % 1019,6 hPa 0,0 l/m 0 min 0 min 0 W/m 6,4 km/h (2 Bft) 100,00 %
22.11.2021 02:30 3,6 C 3,3 C 2,2 C 96 % 1019,6 hPa 0,0 l/m 0 min 0 min 0 W/m 16,1 km/h (3 Bft) 100,00 %
22.11.2021 02:32 3,6 C 3,3 C 2,2 C 96 % 1019,6 hPa 0,0 l/m 0 min 0 min 0 W/m 3,2 km/h (1 Bft) 100,00 %
22.11.2021 02:34 3,7 C 3,3 C 2,2 C 96 % 1019,6 hPa 0,0 l/m 0 min 0 min 0 W/m 9,7 km/h (2 Bft) 100,00 %
22.11.2021 02:36 3,8 C 3,3 C 2,2 C 96 % 1019,6 hPa 0,0 l/m 0 min 0 min 0 W/m 9,7 km/h (2 Bft) 100,00 %
22.11.2021 02:38 3,8 C 3,3 C 2,2 C 96 % 1019,7 hPa 0,0 l/m 0 min 0 min 0 W/m 6,4 km/h (2 Bft) 100,00 %
22.11.2021 02:40 3,9 C 3,3 C 2,2 C 96 % 1019,7 hPa 0,0 l/m 0 min 0 min 0 W/m 12,9 km/h (3 Bft) 100,00 %
22.11.2021 02:42 3,9 C 3,3 C 2,2 C 96 % 1019,8 hPa 0,0 l/m 0 min 0 min 0 W/m 6,4 km/h (2 Bft) 97,87 %
22.11.2021 02:44 3,9 C 3,9 C 2,8 C 96 % 1019,8 hPa 0,0 l/m 0 min 0 min 0 W/m 9,7 km/h (2 Bft) 100,00 %
22.11.2021 02:46 4,0 C 3,9 C 2,8 C 96 % 1019,8 hPa 0,0 l/m 0 min 0 min 0 W/m 12,9 km/h (3 Bft) 100,00 %
22.11.2021 02:48 4,0 C 3,9 C 2,8 C 96 % 1019,9 hPa 0,0 l/m 0 min 0 min 0 W/m 6,4 km/h (2 Bft) 100,00 %
22.11.2021 02:50 4,0 C 3,9 C 2,8 C 96 % 1019,9 hPa 0,0 l/m 0 min 0 min 0 W/m 6,4 km/h (2 Bft) 100,00 %
22.11.2021 02:52 4,0 C 3,9 C 2,8 C 96 % 1019,9 hPa 0,0 l/m 0 min 0 min 0 W/m 16,1 km/h (3 Bft) 100,00 %
22.11.2021 02:54 4,1 C 3,9 C 2,8 C 96 % 1019,9 hPa 0,0 l/m 0 min 0 min 0 W/m 6,4 km/h (2 Bft) 100,00 %
22.11.2021 02:56 4,1 C 3,9 C 2,8 C 96 % 1020,0 hPa 0,0 l/m 0 min 0 min 0 W/m 6,4 km/h (2 Bft) 100,00 %
22.11.2021 02:58 4,1 C 3,9 C 2,8 C 96 % 1020,0 hPa 0,0 l/m 0 min 0 min 0 W/m 19,3 km/h (3 Bft) 100,00 %
22.11.2021 03:00 4,1 C 3,9 C 2,8 C 96 % 1020,0 hPa 0,0 l/m 0 min 0 min 0 W/m 12,9 km/h (3 Bft) 100,00 %
22.11.2021 03:02 4,1 C 3,9 C 2,8 C 96 % 1020,1 hPa 0,0 l/m 0 min 0 min 0 W/m 6,4 km/h (2 Bft) 100,00 %
22.11.2021 03:04 4,1 C 3,9 C 2,8 C 96 % 1020,1 hPa 0,0 l/m 0 min 0 min 0 W/m 6,4 km/h (2 Bft) 100,00 %
22.11.2021 03:06 4,2 C 3,9 C 2,8 C 96 % 1020,1 hPa 0,0 l/m 0 min 0 min 0 W/m 6,4 km/h (2 Bft) 97,83 %
22.11.2021 03:08 4,2 C 3,9 C 2,8 C 96 % 1020,2 hPa 0,0 l/m 0 min 0 min 0 W/m 3,2 km/h (1 Bft) 100,00 %
22.11.2021 03:10 4,2 C 3,9 C 2,8 C 96 % 1020,2 hPa 0,0 l/m 0 min 0 min 0 W/m 6,4 km/h (2 Bft) 100,00 %
22.11.2021 03:12 4,3 C 3,9 C 2,8 C 96 % 1020,3 hPa 0,0 l/m 0 min 0 min 0 W/m 12,9 km/h (3 Bft) 100,00 %
22.11.2021 03:14 4,3 C 3,9 C 2,8 C 96 % 1020,3 hPa 0,0 l/m 0 min 0 min 0 W/m 16,1 km/h (3 Bft) 100,00 %
22.11.2021 03:16 4,3 C 3,9 C 2,8 C 96 % 1020,3 hPa 0,0 l/m 0 min 0 min 0 W/m 22,5 km/h (4 Bft) 100,00 %
22.11.2021 03:18 4,3 C 3,9 C 2,8 C 96 % 1020,3 hPa 0,0 l/m 0 min 0 min 0 W/m 16,1 km/h (3 Bft) 100,00 %
22.11.2021 03:20 4,3 C 3,9 C 2,8 C 96 % 1020,3 hPa 0,0 l/m 0 min 0 min 0 W/m 19,3 km/h (3 Bft) 100,00 %
22.11.2021 03:22 4,3 C 3,9 C 2,8 C 96 % 1020,4 hPa 0,0 l/m 0 min 0 min 0 W/m 16,1 km/h (3 Bft) 100,00 %
22.11.2021 03:24 4,4 C 3,9 C 2,8 C 96 % 1020,4 hPa 0,0 l/m 0 min 0 min 0 W/m 12,9 km/h (3 Bft) 100,00 %
22.11.2021 03:26 4,4 C 3,9 C 2,8 C 96 % 1020,4 hPa 0,0 l/m 0 min 0 min 0 W/m 6,4 km/h (2 Bft) 100,00 %
22.11.2021 03:28 4,4 C 3,9 C 2,8 C 96 % 1020,5 hPa 0,0 l/m 0 min 0 min 0 W/m 9,7 km/h (2 Bft) 98,18 %
22.11.2021 03:30 4,4 C 3,9 C 2,8 C 96 % 1020,5 hPa 0,0 l/m 0 min 0 min 0 W/m 16,1 km/h (3 Bft) 98,00 %
22.11.2021 03:32 4,4 C 3,9 C 3,3 C 96 % 1020,5 hPa 0,0 l/m 0 min 0 min 0 W/m 12,9 km/h (3 Bft) 97,87 %
22.11.2021 03:34 4,5 C 3,9 C 3,3 C 96 % 1020,5 hPa 0,0 l/m 0 min 0 min 0 W/m 16,1 km/h (3 Bft) 100,00 %
22.11.2021 03:36 4,5 C 3,9 C 3,3 C 96 % 1020,4 hPa 0,0 l/m 0 min 0 min 0 W/m 22,5 km/h (4 Bft) 93,62 %
22.11.2021 03:38 4,5 C 3,9 C 3,3 C 96 % 1020,6 hPa 0,0 l/m 0 min 0 min 0 W/m 16,1 km/h (3 Bft) 95,74 %
22.11.2021 03:40 4,5 C 4,4 C 3,3 C 96 % 1020,6 hPa 0,0 l/m 0 min 0 min 0 W/m 6,4 km/h (2 Bft) 100,00 %
22.11.2021 03:42 4,5 C 4,4 C 3,3 C 96 % 1020,6 hPa 0,0 l/m 0 min 0 min 0 W/m 6,4 km/h (2 Bft) 97,87 %
22.11.2021 03:44 4,5 C 4,4 C 3,3 C 96 % 1020,6 hPa 0,0 l/m 0 min 0 min 0 W/m 16,1 km/h (3 Bft) 95,74 %
22.11.2021 03:46 4,5 C 4,4 C 3,3 C 96 % 1020,7 hPa 0,0 l/m 0 min 0 min 0 W/m 12,9 km/h (3 Bft) 97,87 %
22.11.2021 03:48 4,5 C 4,4 C 3,3 C 96 % 1020,7 hPa 0,0 l/m 0 min 0 min 0 W/m 6,4 km/h (2 Bft) 97,87 %
22.11.2021 03:50 4,5 C 4,4 C 3,3 C 96 % 1020,7 hPa 0,0 l/m 0 min 0 min 0 W/m 16,1 km/h (3 Bft) 94,29 %
22.11.2021 03:52 4,6 C 4,4 C 3,3 C 96 % 1020,7 hPa 0,0 l/m 0 min 0 min 0 W/m 9,7 km/h (2 Bft) 96,36 %
22.11.2021 03:54 4,6 C 4,4 C 3,3 C 96 % 1020,6 hPa 0,0 l/m 0 min 0 min 0 W/m 16,1 km/h (3 Bft) 96,00 %
22.11.2021 03:56 4,6 C 4,4 C 3,3 C 96 % 1020,6 hPa 0,0 l/m 0 min 0 min 0 W/m 6,4 km/h (2 Bft) 93,62 %
22.11.2021 03:58 4,6 C 4,4 C 3,3 C 96 % 1020,7 hPa 0,0 l/m 0 min 0 min 0 W/m 12,9 km/h (3 Bft) 97,37 %
22.11.2021 04:00 4,6 C 4,4 C 3,3 C 96 % 1020,7 hPa 0,0 l/m 0 min 0 min 0 W/m 16,1 km/h (3 Bft) 95,74 %
22.11.2021 04:02 4,7 C 4,4 C 3,3 C 96 % 1020,7 hPa 0,0 l/m 0 min 0 min 0 W/m 6,4 km/h (2 Bft) 100,00 %
22.11.2021 04:04 4,7 C 4,4 C 3,3 C 96 % 1020,7 hPa 0,0 l/m 0 min 0 min 0 W/m 9,7 km/h (2 Bft) 100,00 %
22.11.2021 04:06 4,7 C 4,4 C 3,3 C 96 % 1020,8 hPa 0,0 l/m 0 min 0 min 0 W/m 12,9 km/h (3 Bft) 94,23 %
22.11.2021 04:08 4,7 C 4,4 C 3,3 C 96 % 1020,8 hPa 0,0 l/m 0 min 0 min 0 W/m 12,9 km/h (3 Bft) 91,49 %
22.11.2021 04:10 4,8 C 4,4 C 3,3 C 96 % 1020,9 hPa 0,0 l/m 0 min 0 min 0 W/m 9,7 km/h (2 Bft) 97,87 %
22.11.2021 04:12 4,8 C 4,4 C 3,3 C 96 % 1020,9 hPa 0,0 l/m 0 min 0 min 0 W/m 12,9 km/h (3 Bft) 94,00 %
22.11.2021 04:14 4,8 C 4,4 C 3,3 C 96 % 1020,9 hPa 0,0 l/m 0 min 0 min 0 W/m 25,7 km/h (4 Bft) 95,65 %
22.11.2021 04:16 4,8 C 4,4 C 3,3 C 96 % 1020,9 hPa 0,0 l/m 0 min 0 min 0 W/m 12,9 km/h (3 Bft) 95,74 %
22.11.2021 04:18 4,8 C 4,4 C 3,3 C 96 % 1020,8 hPa 0,0 l/m 0 min 0 min 0 W/m 12,9 km/h (3 Bft) 93,62 %
22.11.2021 04:20 4,9 C 4,4 C 3,3 C 96 % 1020,8 hPa 0,0 l/m 0 min 0 min 0 W/m 12,9 km/h (3 Bft) 95,74 %
22.11.2021 04:22 4,9 C 4,4 C 3,3 C 96 % 1020,9 hPa 0,0 l/m 0 min 0 min 0 W/m 9,7 km/h (2 Bft) 94,74 %
22.11.2021 04:24 4,9 C 4,4 C 3,3 C 96 % 1021,0 hPa 0,0 l/m 0 min 0 min 0 W/m 32,2 km/h (5 Bft) 97,87 %
22.11.2021 04:26 4,9 C 4,4 C 3,3 C 96 % 1020,9 hPa 0,0 l/m 0 min 0 min 0 W/m 12,9 km/h (3 Bft) 95,74 %
22.11.2021 04:28 4,9 C 4,4 C 3,3 C 96 % 1020,9 hPa 0,0 l/m 0 min 0 min 0 W/m 16,1 km/h (3 Bft) 95,65 %
22.11.2021 04:30 4,9 C 4,4 C 3,3 C 96 % 1020,9 hPa 0,0 l/m 0 min 0 min 0 W/m 22,5 km/h (4 Bft) 97,87 %
22.11.2021 04:32 4,9 C 4,4 C 3,3 C 96 % 1020,9 hPa 0,0 l/m 0 min 0 min 0 W/m 9,7 km/h (2 Bft) 96,43 %
22.11.2021 04:34 4,9 C 4,4 C 3,3 C 96 % 1021,0 hPa 0,0 l/m 0 min 0 min 0 W/m 12,9 km/h (3 Bft) 93,62 %
22.11.2021 04:36 5,0 C 4,4 C 3,9 C 96 % 1021,0 hPa 0,0 l/m 0 min 0 min 0 W/m 12,9 km/h (3 Bft) 95,74 %
22.11.2021 04:38 5,0 C 4,4 C 3,9 C 96 % 1021,0 hPa 0,0 l/m 0 min 0 min 0 W/m 22,5 km/h (4 Bft) 97,83 %
22.11.2021 04:40 5,0 C 4,4 C 3,9 C 96 % 1021,1 hPa 0,0 l/m 0 min 0 min 0 W/m 19,3 km/h (3 Bft) 97,87 %
22.11.2021 04:42 5,0 C 5,0 C 3,9 C 96 % 1021,2 hPa 0,0 l/m 0 min 0 min 0 W/m 12,9 km/h (3 Bft) 95,74 %
22.11.2021 04:44 5,0 C 5,0 C 3,9 C 96 % 1021,1 hPa 0,0 l/m 0 min 0 min 0 W/m 9,7 km/h (2 Bft) 97,37 %
22.11.2021 04:46 5,0 C 5,0 C 3,9 C 96 % 1021,2 hPa 0,0 l/m 0 min 0 min 0 W/m 19,3 km/h (3 Bft) 100,00 %
22.11.2021 04:48 5,1 C 5,0 C 3,9 C 95 % 1021,2 hPa 0,0 l/m 0 min 0 min 0 W/m 19,3 km/h (3 Bft) 97,87 %
22.11.2021 04:50 5,1 C 5,0 C 3,9 C 95 % 1021,3 hPa 0,0 l/m 0 min 0 min 0 W/m 9,7 km/h (2 Bft) 98,18 %
22.11.2021 04:52 5,1 C 5,0 C 3,9 C 95 % 1021,3 hPa 0,0 l/m 0 min 0 min 0 W/m 19,3 km/h (3 Bft) 97,37 %
22.11.2021 04:54 5,1 C 5,0 C 3,9 C 96 % 1021,3 hPa 0,0 l/m 0 min 0 min 0 W/m 9,7 km/h (2 Bft) 97,87 %
22.11.2021 04:56 5,1 C 5,0 C 3,9 C 95 % 1021,3 hPa 0,0 l/m 0 min 0 min 0 W/m 12,9 km/h (3 Bft) 95,74 %
22.11.2021 04:58 5,1 C 5,0 C 3,9 C 95 % 1021,4 hPa 0,0 l/m 0 min 0 min 0 W/m 9,7 km/h (2 Bft) 97,87 %
22.11.2021 05:00 5,1 C 5,0 C 3,9 C 95 % 1021,4 hPa 0,0 l/m 0 min 0 min 0 W/m 6,4 km/h (2 Bft) 97,87 %
22.11.2021 05:02 5,1 C 5,0 C 3,9 C 95 % 1021,5 hPa 0,0 l/m 0 min 0 min 0 W/m 3,2 km/h (1 Bft) 100,00 %
22.11.2021 05:04 5,1 C 5,0 C 3,9 C 95 % 1021,5 hPa 0,0 l/m 0 min 0 min 0 W/m 6,4 km/h (2 Bft) 100,00 %
22.11.2021 05:06 5,1 C 5,0 C 3,9 C 95 % 1021,5 hPa 0,0 l/m 0 min 0 min 0 W/m 3,2 km/h (1 Bft) 100,00 %
22.11.2021 05:08 5,1 C 5,0 C 3,9 C 95 % 1021,6 hPa 0,0 l/m 0 min 0 min 0 W/m 9,7 km/h (2 Bft) 100,00 %
22.11.2021 05:10 5,1 C 5,0 C 3,9 C 95 % 1021,7 hPa 0,0 l/m 0 min 0 min 0 W/m 3,2 km/h (1 Bft) 97,87 %
22.11.2021 05:12 5,2 C 5,0 C 3,9 C 95 % 1021,7 hPa 0,0 l/m 0 min 0 min 0 W/m 6,4 km/h (2 Bft) 100,00 %
22.11.2021 05:14 5,2 C 5,0 C 3,9 C 95 % 1021,7 hPa 0,0 l/m 0 min 0 min 0 W/m 12,9 km/h (3 Bft) 100,00 %
22.11.2021 05:16 5,2 C 5,0 C 3,9 C 95 % 1021,7 hPa 0,0 l/m 0 min 0 min 0 W/m 9,7 km/h (2 Bft) 100,00 %
22.11.2021 05:18 5,2 C 5,0 C 3,9 C 95 % 1021,8 hPa 0,0 l/m 0 min 0 min 0 W/m 6,4 km/h (2 Bft) 100,00 %
22.11.2021 05:20 5,2 C 5,0 C 3,9 C 95 % 1021,8 hPa 0,0 l/m 0 min 0 min 0 W/m 6,4 km/h (2 Bft) 100,00 %
22.11.2021 05:22 5,2 C 5,0 C 3,9 C 95 % 1021,8 hPa 0,0 l/m 0 min 0 min 0 W/m 9,7 km/h (2 Bft) 100,00 %
22.11.2021 05:24 5,2 C 5,0 C 3,9 C 95 % 1021,9 hPa 0,0 l/m 0 min 0 min 0 W/m 6,4 km/h (2 Bft) 100,00 %
22.11.2021 05:26 5,3 C 5,0 C 3,9 C 95 % 1021,9 hPa 0,0 l/m 0 min 0 min 0 W/m 3,2 km/h (1 Bft) 97,44 %
22.11.2021 05:28 5,3 C 5,0 C 3,9 C 95 % 1021,9 hPa 0,0 l/m 0 min 0 min 0 W/m 3,2 km/h (1 Bft) 97,83 %
22.11.2021 05:30 5,3 C 5,0 C 3,9 C 95 % 1022,0 hPa 0,0 l/m 0 min 0 min 0 W/m 3,2 km/h (1 Bft) 97,87 %
22.11.2021 05:32 5,3 C 4,4 C 3,9 C 95 % 1021,9 hPa 0,0 l/m 0 min 0 min 0 W/m 3,2 km/h (1 Bft) 96,43 %
22.11.2021 05:34 5,3 C 4,4 C 3,9 C 95 % 1022,0 hPa 0,0 l/m 0 min 0 min 0 W/m 6,4 km/h (2 Bft) 100,00 %
22.11.2021 05:36 5,3 C 5,0 C 3,9 C 95 % 1022,0 hPa 0,0 l/m 0 min 0 min 0 W/m 6,4 km/h (2 Bft) 96,15 %
22.11.2021 05:38 5,3 C 5,0 C 3,9 C 95 % 1022,0 hPa 0,0 l/m 0 min 0 min 0 W/m 6,4 km/h (2 Bft) 97,87 %
22.11.2021 05:40 5,3 C 5,0 C 3,9 C 95 % 1022,1 hPa 0,0 l/m 0 min 0 min 0 W/m 3,2 km/h (1 Bft) 97,87 %
22.11.2021 05:42 5,3 C 5,0 C 3,9 C 95 % 1022,1 hPa 0,0 l/m 0 min 0 min 0 W/m 16,1 km/h (3 Bft) 95,74 %
22.11.2021 05:44 5,3 C 5,0 C 3,9 C 95 % 1022,1 hPa 0,0 l/m 0 min 0 min 0 W/m 6,4 km/h (2 Bft) 98,00 %
22.11.2021 05:46 5,3 C 5,0 C 3,9 C 95 % 1022,1 hPa 0,0 l/m 0 min 0 min 0 W/m 6,4 km/h (2 Bft) 97,37 %
22.11.2021 05:48 5,3 C 5,0 C 3,9 C 95 % 1022,1 hPa 0,0 l/m 0 min 0 min 0 W/m 3,2 km/h (1 Bft) 97,87 %
22.11.2021 05:50 5,3 C 5,0 C 3,9 C 94 % 1022,2 hPa 0,0 l/m 0 min 0 min 0 W/m 6,4 km/h (2 Bft) 97,87 %
22.11.2021 05:52 5,3 C 5,0 C 3,9 C 94 % 1022,2 hPa 0,0 l/m 0 min 0 min 0 W/m 6,4 km/h (2 Bft) 98,18 %
22.11.2021 05:54 5,3 C 5,0 C 3,9 C 94 % 1022,3 hPa 0,0 l/m 0 min 0 min 0 W/m 6,4 km/h (2 Bft) 97,37 %
22.11.2021 05:56 5,3 C 5,0 C 3,9 C 94 % 1022,3 hPa 0,0 l/m 0 min 0 min 0 W/m 3,2 km/h (1 Bft) 97,87 %
22.11.2021 05:58 5,3 C 5,0 C 3,9 C 94 % 1022,4 hPa 0,0 l/m 0 min 0 min 0 W/m 9,7 km/h (2 Bft) 95,74 %
22.11.2021 06:00 5,3 C 5,0 C 3,9 C 94 % 1022,4 hPa 0,0 l/m 0 min 0 min 0 W/m 6,4 km/h (2 Bft) 100,00 %
22.11.2021 06:02 5,3 C 5,0 C 3,9 C 94 % 1022,4 hPa 0,0 l/m 0 min 0 min 0 W/m 6,4 km/h (2 Bft) 97,37 %
22.11.2021 06:04 5,3 C 5,0 C 3,9 C 94 % 1022,4 hPa 0,0 l/m 0 min 0 min 0 W/m 9,7 km/h (2 Bft) 100,00 %
22.11.2021 06:06 5,3 C 5,0 C 3,9 C 94 % 1022,5 hPa 0,0 l/m 0 min 0 min 0 W/m 9,7 km/h (2 Bft) 97,87 %
22.11.2021 06:08 5,3 C 5,0 C 3,9 C 94 % 1022,5 hPa 0,0 l/m 0 min 0 min 0 W/m 12,9 km/h (3 Bft) 97,87 %
22.11.2021 06:10 5,3 C 5,0 C 3,9 C 94 % 1022,5 hPa 0,0 l/m 0 min 0 min 0 W/m 6,4 km/h (2 Bft) 96,00 %
22.11.2021 06:12 5,3 C 5,0 C 3,9 C 94 % 1022,6 hPa 0,0 l/m 0 min 0 min 0 W/m 6,4 km/h (2 Bft) 97,83 %
22.11.2021 06:14 5,3 C 5,0 C 3,9 C 94 % 1022,6 hPa 0,0 l/m 0 min 0 min 0 W/m 9,7 km/h (2 Bft) 97,87 %
22.11.2021 06:16 5,3 C 5,0 C 3,9 C 94 % 1022,7 hPa 0,0 l/m 0 min 0 min 0 W/m 6,4 km/h (2 Bft) 98,11 %
22.11.2021 06:18 5,3 C 5,0 C 3,9 C 94 % 1022,7 hPa 0,0 l/m 0 min 0 min 0 W/m 3,2 km/h (1 Bft) 97,37 %
22.11.2021 06:20 5,3 C 5,0 C 3,9 C 94 % 1022,7 hPa 0,0 l/m 0 min 0 min 0 W/m 9,7 km/h (2 Bft) 98,00 %
22.11.2021 06:22 5,3 C 5,0 C 3,9 C 94 % 1022,8 hPa 0,0 l/m 0 min 0 min 0 W/m 3,2 km/h (1 Bft) 95,74 %
22.11.2021 06:24 5,2 C 5,0 C 3,9 C 94 % 1022,8 hPa 0,0 l/m 0 min 0 min 0 W/m 9,7 km/h (2 Bft) 95,65 %
22.11.2021 06:26 5,2 C 5,0 C 3,9 C 94 % 1022,8 hPa 0,0 l/m 0 min 0 min 0 W/m 12,9 km/h (3 Bft) 97,73 %
22.11.2021 06:28 5,2 C 5,0 C 3,9 C 94 % 1022,8 hPa 0,0 l/m 0 min 0 min 0 W/m 3,2 km/h (1 Bft) 97,87 %
22.11.2021 06:30 5,2 C 5,0 C 3,9 C 94 % 1022,9 hPa 0,0 l/m 0 min 0 min 0 W/m 6,4 km/h (2 Bft) 98,00 %
22.11.2021 06:32 5,2 C 5,0 C 3,9 C 94 % 1022,9 hPa 0,0 l/m 0 min 0 min 0 W/m 6,4 km/h (2 Bft) 98,08 %
22.11.2021 06:34 5,2 C 4,4 C 3,9 C 94 % 1023,0 hPa 0,0 l/m 0 min 0 min 0 W/m 9,7 km/h (2 Bft) 97,44 %
22.11.2021 06:36 5,1 C 4,4 C 3,3 C 93 % 1023,0 hPa 0,0 l/m 0 min 0 min 0 W/m 6,4 km/h (2 Bft) 97,96 %
22.11.2021 06:38 5,1 C 4,4 C 3,3 C 93 % 1023,0 hPa 0,0 l/m 0 min 0 min 0 W/m 6,4 km/h (2 Bft) 97,87 %
22.11.2021 06:40 5,1 C 4,4 C 3,3 C 93 % 1023,0 hPa 0,0 l/m 0 min 0 min 0 W/m 19,3 km/h (3 Bft) 97,87 %
22.11.2021 06:42 5,1 C 4,4 C 3,3 C 93 % 1023,1 hPa 0,0 l/m 0 min 0 min 0 W/m 12,9 km/h (3 Bft) 97,87 %
22.11.2021 06:44 5,1 C 4,4 C 3,3 C 93 % 1023,1 hPa 0,0 l/m 0 min 0 min 0 W/m 6,4 km/h (2 Bft) 97,87 %
22.11.2021 06:46 5,1 C 4,4 C 3,3 C 93 % 1023,2 hPa 0,0 l/m 0 min 0 min 0 W/m 6,4 km/h (2 Bft) 98,08 %
22.11.2021 06:48 5,0 C 4,4 C 3,3 C 93 % 1023,2 hPa 0,0 l/m 0 min 0 min 0 W/m 3,2 km/h (1 Bft) 97,37 %
22.11.2021 06:50 5,0 C 4,4 C 3,3 C 93 % 1023,2 hPa 0,0 l/m 0 min 0 min 0 W/m 3,2 km/h (1 Bft) 98,00 %
22.11.2021 06:52 5,0 C 4,4 C 3,3 C 93 % 1023,3 hPa 0,0 l/m 0 min 0 min 0 W/m 9,7 km/h (2 Bft) 95,74 %
22.11.2021 06:54 5,0 C 4,4 C 3,3 C 93 % 1023,3 hPa 0,0 l/m 0 min 0 min 0 W/m 9,7 km/h (2 Bft) 100,00 %
22.11.2021 06:56 5,0 C 4,4 C 3,3 C 93 % 1023,3 hPa 0,0 l/m 0 min 0 min 0 W/m 6,4 km/h (2 Bft) 100,00 %
22.11.2021 06:58 5,0 C 4,4 C 3,3 C 93 % 1023,3 hPa 0,0 l/m 0 min 0 min 0 W/m 6,4 km/h (2 Bft) 100,00 %
22.11.2021 07:00 5,0 C 4,4 C 3,3 C 93 % 1023,3 hPa 0,0 l/m 0 min 0 min 0 W/m 6,4 km/h (2 Bft) 100,00 %
22.11.2021 07:02 5,0 C 4,4 C 3,3 C 93 % 1023,3 hPa 0,0 l/m 0 min 0 min 0 W/m 9,7 km/h (2 Bft) 100,00 %
22.11.2021 07:04 5,0 C 4,4 C 3,3 C 93 % 1023,3 hPa 0,0 l/m 0 min 0 min 0 W/m 6,4 km/h (2 Bft) 100,00 %
22.11.2021 07:06 5,0 C 4,4 C 3,3 C 92 % 1023,3 hPa 0,0 l/m 0 min 0 min 0 W/m 3,2 km/h (1 Bft) 100,00 %
22.11.2021 07:08 5,0 C 4,4 C 3,3 C 92 % 1023,3 hPa 0,0 l/m 0 min 0 min 0 W/m 6,4 km/h (2 Bft) 100,00 %
22.11.2021 07:10 5,0 C 4,4 C 3,3 C 92 % 1023,3 hPa 0,0 l/m 0 min 0 min 0 W/m 3,2 km/h (1 Bft) 100,00 %
22.11.2021 07:12 4,9 C 4,4 C 3,3 C 92 % 1023,3 hPa 0,0 l/m 0 min 0 min 0 W/m 3,2 km/h (1 Bft) 97,87 %
22.11.2021 07:14 4,9 C 3,9 C 3,3 C 92 % 1023,3 hPa 0,0 l/m 0 min 0 min 0 W/m 3,2 km/h (1 Bft) 94,74 %
22.11.2021 07:16 4,9 C 3,9 C 3,3 C 92 % 1023,4 hPa 0,0 l/m 0 min 0 min 0 W/m 3,2 km/h (1 Bft) 98,00 %
22.11.2021 07:18 4,9 C 3,9 C 2,8 C 92 % 1023,5 hPa 0,0 l/m 0 min 0 min 0 W/m 9,7 km/h (2 Bft) 95,74 %
22.11.2021 07:20 4,8 C 3,9 C 2,8 C 92 % 1023,5 hPa 0,0 l/m 0 min 0 min 0 W/m 3,2 km/h (1 Bft) 93,62 %
22.11.2021 07:22 4,8 C 3,9 C 2,8 C 92 % 1023,5 hPa 0,0 l/m 0 min 0 min 0 W/m 12,9 km/h (3 Bft) 95,35 %
22.11.2021 07:24 4,8 C 3,9 C 2,8 C 92 % 1023,5 hPa 0,0 l/m 0 min 0 min 0 W/m 6,4 km/h (2 Bft) 96,00 %
22.11.2021 07:26 4,8 C 3,9 C 2,8 C 92 % 1023,6 hPa 0,0 l/m 0 min 0 min 0 W/m 6,4 km/h (2 Bft) 95,74 %
22.11.2021 07:28 4,7 C 3,9 C 2,8 C 92 % 1023,6 hPa 0,0 l/m 0 min 0 min 0 W/m 6,4 km/h (2 Bft) 95,74 %
22.11.2021 07:30 4,6 C 3,9 C 2,8 C 92 % 1023,6 hPa 0,0 l/m 0 min 0 min 0 W/m 9,7 km/h (2 Bft) 93,62 %
22.11.2021 07:32 4,6 C 3,9 C 2,8 C 92 % 1023,6 hPa 0,0 l/m 0 min 0 min 0 W/m 6,4 km/h (2 Bft) 95,45 %
22.11.2021 07:34 4,6 C 3,9 C 2,8 C 92 % 1023,7 hPa 0,0 l/m 0 min 0 min 0 W/m 3,2 km/h (1 Bft) 95,92 %
22.11.2021 07:36 4,6 C 3,9 C 2,8 C 92 % 1023,7 hPa 0,0 l/m 0 min 0 min 0 W/m 3,2 km/h (1 Bft) 95,74 %
22.11.2021 07:38 4,6 C 3,9 C 2,8 C 92 % 1023,7 hPa 0,0 l/m 0 min 0 min 0 W/m 3,2 km/h (1 Bft) 95,74 %
22.11.2021 07:40 4,5 C 3,9 C 2,8 C 92 % 1023,7 hPa 0,0 l/m 0 min 0 min 0 W/m 3,2 km/h (1 Bft) 95,74 %
22.11.2021 07:42 4,5 C 3,9 C 2,8 C 92 % 1023,8 hPa 0,0 l/m 0 min 0 min 0 W/m 6,4 km/h (2 Bft) 90,91 %
22.11.2021 07:44 4,5 C 3,9 C 2,8 C 92 % 1023,8 hPa 0,0 l/m 0 min 0 min 0 W/m 6,4 km/h (2 Bft) 95,92 %
22.11.2021 07:46 4,5 C 3,9 C 2,8 C 92 % 1023,8 hPa 0,0 l/m 0 min 0 min 0 W/m 9,7 km/h (2 Bft) 93,62 %
22.11.2021 07:48 4,5 C 3,9 C 2,8 C 92 % 1023,8 hPa 0,0 l/m 0 min 0 min 0 W/m 12,9 km/h (3 Bft) 95,74 %
22.11.2021 07:50 4,5 C 3,9 C 2,8 C 92 % 1023,8 hPa 0,0 l/m 0 min 0 min 0 W/m 9,7 km/h (2 Bft) 97,87 %
22.11.2021 07:52 4,5 C 3,9 C 2,8 C 92 % 1023,9 hPa 0,0 l/m 0 min 0 min 0 W/m 6,4 km/h (2 Bft) 97,87 %
22.11.2021 07:54 4,5 C 3,9 C 2,8 C 92 % 1023,9 hPa 0,0 l/m 0 min 0 min 0 W/m 6,4 km/h (2 Bft) 97,62 %
22.11.2021 07:56 4,5 C 3,9 C 2,8 C 92 % 1023,9 hPa 0,0 l/m 0 min 0 min 0 W/m 6,4 km/h (2 Bft) 97,83 %
22.11.2021 07:58 4,5 C 3,9 C 2,8 C 92 % 1023,9 hPa 0,0 l/m 0 min 0 min 0 W/m 6,4 km/h (2 Bft) 95,83 %
22.11.2021 08:00 4,5 C 3,9 C 2,8 C 92 % 1024,0 hPa 0,0 l/m 0 min 0 min 0 W/m 6,4 km/h (2 Bft) 97,87 %
22.11.2021 08:02 4,5 C 3,9 C 2,8 C 92 % 1024,1 hPa 0,0 l/m 0 min 0 min 0 W/m 3,2 km/h (1 Bft) 84,00 %
22.11.2021 08:04 4,5 C 3,9 C 2,8 C 92 % 1024,1 hPa 0,0 l/m 0 min 0 min 0 W/m 12,9 km/h (3 Bft) 70,21 %
22.11.2021 08:06 4,5 C 3,9 C 2,8 C 93 % 1024,3 hPa 0,0 l/m 0 min 0 min 0 W/m 6,4 km/h (2 Bft) 97,83 %
22.11.2021 08:08 4,5 C 3,9 C 2,8 C 93 % 1024,3 hPa 0,0 l/m 0 min 0 min 0 W/m 16,1 km/h (3 Bft) 97,87 %
22.11.2021 08:10 4,5 C 3,9 C 2,8 C 93 % 1024,4 hPa 0,0 l/m 0 min 0 min 0 W/m 9,7 km/h (2 Bft) 97,92 %
22.11.2021 08:12 4,5 C 3,9 C 2,8 C 93 % 1024,4 hPa 0,0 l/m 0 min 0 min 0 W/m 9,7 km/h (2 Bft) 95,74 %
22.11.2021 08:14 4,4 C 3,9 C 2,8 C 93 % 1024,4 hPa 0,0 l/m 0 min 0 min 5 W/m 19,3 km/h (3 Bft) 97,14 %
22.11.2021 08:16 4,4 C 3,9 C 2,8 C 93 % 1024,4 hPa 0,0 l/m 0 min 0 min 5 W/m 6,4 km/h (2 Bft) 100,00 %
22.11.2021 08:18 4,4 C 3,9 C 2,8 C 93 % 1024,6 hPa 0,0 l/m 0 min 0 min 7 W/m 6,4 km/h (2 Bft) 97,87 %
22.11.2021 08:20 4,4 C 3,9 C 2,8 C 93 % 1024,6 hPa 0,0 l/m 0 min 0 min 7 W/m 6,4 km/h (2 Bft) 97,83 %
22.11.2021 08:22 4,4 C 3,9 C 2,8 C 93 % 1024,7 hPa 0,0 l/m 0 min 0 min 9 W/m 3,2 km/h (1 Bft) 97,87 %
22.11.2021 08:24 4,4 C 3,9 C 2,8 C 93 % 1024,7 hPa 0,0 l/m 0 min 0 min 12 W/m 9,7 km/h (2 Bft) 100,00 %
22.11.2021 08:26 4,4 C 3,9 C 2,8 C 93 % 1024,7 hPa 0,0 l/m 0 min 0 min 12 W/m 9,7 km/h (2 Bft) 98,00 %
22.11.2021 08:28 4,4 C 3,9 C 2,8 C 93 % 1024,7 hPa 0,0 l/m 0 min 0 min 13 W/m 3,2 km/h (1 Bft) 100,00 %
22.11.2021 08:30 4,4 C 3,9 C 2,8 C 93 % 1024,7 hPa 0,0 l/m 0 min 0 min 12 W/m 16,1 km/h (3 Bft) 97,83 %
22.11.2021 08:32 4,4 C 3,9 C 2,8 C 93 % 1024,8 hPa 0,0 l/m 0 min 0 min 12 W/m 6,4 km/h (2 Bft) 100,00 %
22.11.2021 08:34 4,4 C 3,9 C 2,8 C 93 % 1024,8 hPa 0,0 l/m 0 min 0 min 12 W/m 6,4 km/h (2 Bft) 100,00 %
22.11.2021 08:36 4,4 C 3,9 C 2,8 C 93 % 1024,9 hPa 0,0 l/m 0 min 0 min 13 W/m 12,9 km/h (3 Bft) 97,87 %
22.11.2021 08:38 4,4 C 3,9 C 2,8 C 93 % 1024,9 hPa 0,0 l/m 0 min 0 min 15 W/m 6,4 km/h (2 Bft) 95,74 %
22.11.2021 08:40 4,4 C 3,9 C 2,8 C 93 % 1025,0 hPa 0,0 l/m 0 min 0 min 15 W/m 6,4 km/h (2 Bft) 97,83 %
22.11.2021 08:42 4,4 C 3,9 C 2,8 C 93 % 1025,0 hPa 0,0 l/m 0 min 0 min 18 W/m 19,3 km/h (3 Bft) 97,22 %
22.11.2021 08:44 4,4 C 3,9 C 2,8 C 93 % 1025,0 hPa 0,0 l/m 0 min 0 min 16 W/m 19,3 km/h (3 Bft) 95,74 %
22.11.2021 08:46 4,4 C 3,9 C 2,8 C 93 % 1025,0 hPa 0,0 l/m 0 min 0 min 21 W/m 12,9 km/h (3 Bft) 98,28 %
22.11.2021 08:48 4,3 C 3,9 C 2,8 C 93 % 1025,1 hPa 0,0 l/m 0 min 0 min 22 W/m 6,4 km/h (2 Bft) 97,87 %
22.11.2021 08:50 4,4 C 3,9 C 2,8 C 92 % 1025,1 hPa 0,0 l/m 0 min 0 min 19 W/m 19,3 km/h (3 Bft) 97,14 %
22.11.2021 08:52 4,4 C 3,9 C 2,8 C 92 % 1025,2 hPa 0,0 l/m 0 min 0 min 26 W/m 9,7 km/h (2 Bft) 97,87 %
22.11.2021 08:54 4,4 C 3,9 C 2,8 C 93 % 1025,2 hPa 0,0 l/m 0 min 0 min 23 W/m 12,9 km/h (3 Bft) 95,74 %
22.11.2021 08:56 4,4 C 3,9 C 2,8 C 93 % 1025,3 hPa 0,0 l/m 0 min 0 min 23 W/m 9,7 km/h (2 Bft) 96,55 %
22.11.2021 08:58 4,4 C 3,9 C 2,8 C 93 % 1025,3 hPa 0,0 l/m 0 min 0 min 21 W/m 12,9 km/h (3 Bft) 97,14 %
22.11.2021 09:00 4,4 C 3,9 C 2,8 C 93 % 1025,3 hPa 0,0 l/m 0 min 0 min 21 W/m 6,4 km/h (2 Bft) 97,87 %
22.11.2021 09:02 4,4 C 3,9 C 2,8 C 93 % 1025,3 hPa 0,0 l/m 0 min 0 min 24 W/m 9,7 km/h (2 Bft) 98,31 %
22.11.2021 09:04 4,4 C 3,9 C 2,8 C 93 % 1025,3 hPa 0,0 l/m 0 min 0 min 25 W/m 9,7 km/h (2 Bft) 97,83 %
22.11.2021 09:06 4,5 C 3,9 C 2,8 C 93 % 1025,4 hPa 0,0 l/m 0 min 0 min 25 W/m 12,9 km/h (3 Bft) 97,87 %
22.11.2021 09:08 4,5 C 4,4 C 2,8 C 93 % 1025,4 hPa 0,0 l/m 0 min 0 min 43 W/m 6,4 km/h (2 Bft) 91,49 %
22.11.2021 09:10 4,5 C 4,4 C 2,8 C 93 % 1025,4 hPa 0,0 l/m 0 min 0 min 44 W/m 9,7 km/h (2 Bft) 97,14 %
22.11.2021 09:12 4,5 C 4,4 C 2,8 C 93 % 1025,4 hPa 0,0 l/m 0 min 0 min 43 W/m 9,7 km/h (2 Bft) 95,74 %
22.11.2021 09:14 4,5 C 4,4 C 2,8 C 93 % 1025,4 hPa 0,0 l/m 0 min 0 min 42 W/m 9,7 km/h (2 Bft) 95,74 %
22.11.2021 09:16 4,5 C 4,4 C 3,3 C 93 % 1025,5 hPa 0,0 l/m 0 min 0 min 57 W/m 9,7 km/h (2 Bft) 94,83 %
22.11.2021 09:18 4,5 C 4,4 C 3,3 C 93 % 1025,5 hPa 0,0 l/m 0 min 0 min 53 W/m 12,9 km/h (3 Bft) 100,00 %
22.11.2021 09:20 4,5 C 4,4 C 3,3 C 93 % 1025,5 hPa 0,0 l/m 0 min 0 min 42 W/m 6,4 km/h (2 Bft) 97,83 %
22.11.2021 09:22 4,5 C 4,4 C 3,3 C 93 % 1025,6 hPa 0,0 l/m 0 min 0 min 39 W/m 6,4 km/h (2 Bft) 95,74 %
22.11.2021 09:24 4,5 C 4,4 C 3,3 C 93 % 1025,6 hPa 0,0 l/m 0 min 0 min 37 W/m 12,9 km/h (3 Bft) 95,74 %
22.11.2021 09:26 4,5 C 4,4 C 3,3 C 93 % 1025,7 hPa 0,0 l/m 0 min 0 min 33 W/m 6,4 km/h (2 Bft) 96,61 %
22.11.2021 09:28 4,5 C 4,4 C 3,3 C 93 % 1025,7 hPa 0,0 l/m 0 min 0 min 41 W/m 12,9 km/h (3 Bft) 97,83 %
22.11.2021 09:30 4,5 C 4,4 C 3,3 C 93 % 1025,7 hPa 0,0 l/m 0 min 0 min 43 W/m 16,1 km/h (3 Bft) 97,87 %
22.11.2021 09:32 4,5 C 4,4 C 3,3 C 92 % 1025,7 hPa 0,0 l/m 0 min 0 min 43 W/m 9,7 km/h (2 Bft) 97,14 %
22.11.2021 09:34 4,5 C 4,4 C 3,3 C 92 % 1025,8 hPa 0,0 l/m 0 min 0 min 45 W/m 9,7 km/h (2 Bft) 98,31 %
22.11.2021 09:36 4,5 C 4,4 C 3,3 C 92 % 1025,8 hPa 0,0 l/m 0 min 0 min 45 W/m 6,4 km/h (2 Bft) 95,74 %
22.11.2021 09:38 4,5 C 4,4 C 3,3 C 92 % 1025,9 hPa 0,0 l/m 0 min 0 min 38 W/m 6,4 km/h (2 Bft) 97,83 %
22.11.2021 09:40 4,5 C 4,4 C 3,3 C 92 % 1025,9 hPa 0,0 l/m 0 min 0 min 47 W/m 6,4 km/h (2 Bft) 100,00 %
22.11.2021 09:42 4,5 C 4,4 C 3,3 C 92 % 1025,9 hPa 0,0 l/m 0 min 0 min 53 W/m 9,7 km/h (2 Bft) 100,00 %
22.11.2021 09:44 4,5 C 4,4 C 3,3 C 92 % 1026,0 hPa 0,0 l/m 0 min 0 min 47 W/m 6,4 km/h (2 Bft) 100,00 %
22.11.2021 09:46 4,5 C 4,4 C 3,3 C 92 % 1026,0 hPa 0,0 l/m 0 min 0 min 45 W/m 19,3 km/h (3 Bft) 100,00 %
22.11.2021 09:48 4,5 C 4,4 C 3,3 C 92 % 1026,0 hPa 0,0 l/m 0 min 0 min 50 W/m 9,7 km/h (2 Bft) 100,00 %
22.11.2021 09:50 4,5 C 4,4 C 3,3 C 92 % 1026,1 hPa 0,0 l/m 0 min 0 min 52 W/m 16,1 km/h (3 Bft) 95,74 %
22.11.2021 09:52 4,5 C 4,4 C 3,3 C 92 % 1026,1 hPa 0,0 l/m 0 min 0 min 52 W/m 16,1 km/h (3 Bft) 100,00 %
22.11.2021 09:54 4,5 C 4,4 C 3,3 C 92 % 1026,1 hPa 0,0 l/m 0 min 0 min 51 W/m 6,4 km/h (2 Bft) 100,00 %
22.11.2021 09:56 4,5 C 4,4 C 3,3 C 92 % 1026,1 hPa 0,0 l/m 0 min 0 min 48 W/m 9,7 km/h (2 Bft) 97,87 %
22.11.2021 09:58 4,5 C 4,4 C 3,3 C 92 % 1026,2 hPa 0,0 l/m 0 min 0 min 68 W/m 9,7 km/h (2 Bft) 100,00 %
22.11.2021 10:00 4,5 C 4,4 C 3,3 C 92 % 1026,2 hPa 0,0 l/m 0 min 0 min 51 W/m 9,7 km/h (2 Bft) 98,31 %
22.11.2021 10:02 4,6 C 4,4 C 3,3 C 92 % 1026,2 hPa 0,0 l/m 0 min 0 min 50 W/m 12,9 km/h (3 Bft) 100,00 %
22.11.2021 10:04 4,5 C 4,4 C 3,3 C 92 % 1026,2 hPa 0,0 l/m 0 min 0 min 58 W/m 9,7 km/h (2 Bft) 100,00 %
22.11.2021 10:06 4,6 C 4,4 C 3,3 C 92 % 1026,2 hPa 0,0 l/m 0 min 0 min 54 W/m 12,9 km/h (3 Bft) 100,00 %
22.11.2021 10:08 4,5 C 4,4 C 3,3 C 92 % 1026,3 hPa 0,0 l/m 0 min 0 min 68 W/m 16,1 km/h (3 Bft) 100,00 %
22.11.2021 10:10 4,5 C 4,4 C 3,3 C 92 % 1026,3 hPa 0,0 l/m 0 min 0 min 69 W/m 12,9 km/h (3 Bft) 97,14 %
22.11.2021 10:12 4,6 C 4,4 C 3,3 C 92 % 1026,3 hPa 0,0 l/m 0 min 0 min 70 W/m 6,4 km/h (2 Bft) 100,00 %
22.11.2021 10:14 4,6 C 4,4 C 3,3 C 92 % 1026,3 hPa 0,0 l/m 0 min 0 min 84 W/m 9,7 km/h (2 Bft) 100,00 %
22.11.2021 10:16 4,6 C 5,0 C 3,3 C 92 % 1026,3 hPa 0,0 l/m 0 min 0 min 95 W/m 9,7 km/h (2 Bft) 93,48 %
22.11.2021 10:18 4,6 C 5,0 C 3,3 C 92 % 1026,3 hPa 0,0 l/m 0 min 0 min 95 W/m 6,4 km/h (2 Bft) 100,00 %
22.11.2021 10:20 4,6 C 5,0 C 3,3 C 92 % 1026,4 hPa 0,0 l/m 2 min 0 min 144 W/m 9,7 km/h (2 Bft) 95,74 %
22.11.2021 10:22 4,6 C 5,0 C 3,3 C 92 % 1026,5 hPa 0,0 l/m 2 min 0 min 159 W/m 12,9 km/h (3 Bft) 94,92 %
22.11.2021 10:24 4,7 C 5,6 C 3,3 C 92 % 1026,4 hPa 0,0 l/m 2 min 0 min 212 W/m 9,7 km/h (2 Bft) 100,00 %
22.11.2021 10:26 4,8 C 5,6 C 3,3 C 92 % 1026,5 hPa 0,0 l/m 2 min 0 min 161 W/m 9,7 km/h (2 Bft) 96,55 %
22.11.2021 10:28 4,9 C 5,6 C 3,3 C 92 % 1026,5 hPa 0,0 l/m 0 min 0 min 120 W/m 19,3 km/h (3 Bft) 97,87 %
22.11.2021 10:30 4,9 C 5,6 C 3,9 C 92 % 1026,5 hPa 0,0 l/m 0 min 0 min 118 W/m 6,4 km/h (2 Bft) 93,62 %
22.11.2021 10:32 4,9 C 5,6 C 3,9 C 92 % 1026,6 hPa 0,0 l/m 0 min 0 min 127 W/m 16,1 km/h (3 Bft) 97,14 %
22.11.2021 10:34 4,9 C 5,6 C 3,9 C 92 % 1026,6 hPa 0,0 l/m 0 min 0 min 114 W/m 6,4 km/h (2 Bft) 97,87 %
22.11.2021 10:36 5,0 C 5,6 C 3,9 C 92 % 1026,7 hPa 0,0 l/m 0 min 0 min 108 W/m 9,7 km/h (2 Bft) 98,31 %
22.11.2021 10:38 5,0 C 5,6 C 3,9 C 92 % 1026,7 hPa 0,0 l/m 0 min 0 min 69 W/m 9,7 km/h (2 Bft) 97,62 %
22.11.2021 10:40 5,0 C 5,6 C 3,9 C 92 % 1026,7 hPa 0,0 l/m 0 min 0 min 73 W/m 6,4 km/h (2 Bft) 95,74 %
22.11.2021 10:42 5,0 C 5,6 C 3,9 C 92 % 1026,8 hPa 0,0 l/m 0 min 0 min 74 W/m 12,9 km/h (3 Bft) 97,87 %
22.11.2021 10:44 5,0 C 5,0 C 3,3 C 91 % 1026,8 hPa 0,0 l/m 0 min 0 min 79 W/m 9,7 km/h (2 Bft) 97,87 %
22.11.2021 10:46 5,0 C 5,6 C 3,3 C 91 % 1026,8 hPa 0,0 l/m 0 min 0 min 123 W/m 9,7 km/h (2 Bft) 95,74 %
22.11.2021 10:48 5,0 C 5,6 C 3,9 C 91 % 1026,8 hPa 0,0 l/m 2 min 0 min 173 W/m 9,7 km/h (2 Bft) 97,87 %
22.11.2021 10:50 5,0 C 5,6 C 3,9 C 91 % 1026,9 hPa 0,0 l/m 0 min 0 min 122 W/m 12,9 km/h (3 Bft) 97,83 %
22.11.2021 10:52 5,1 C 5,6 C 3,9 C 91 % 1026,9 hPa 0,0 l/m 0 min 0 min 125 W/m 9,7 km/h (2 Bft) 95,74 %
22.11.2021 10:54 5,1 C 5,6 C 3,9 C 91 % 1026,9 hPa 0,0 l/m 0 min 0 min 121 W/m 6,4 km/h (2 Bft) 97,87 %
22.11.2021 10:56 5,1 C 6,1 C 3,9 C 91 % 1026,9 hPa 0,0 l/m 2 min 0 min 158 W/m 9,7 km/h (2 Bft) 95,74 %
22.11.2021 10:58 5,2 C 6,1 C 3,9 C 91 % 1026,9 hPa 0,0 l/m 2 min 0 min 182 W/m 0,0 km/h (0 Bft) 95,74 %
22.11.2021 11:00 5,3 C 6,1 C 3,9 C 91 % 1026,9 hPa 0,0 l/m 2 min 0 min 185 W/m 9,7 km/h (2 Bft) 95,74 %
22.11.2021 11:02 5,3 C 6,7 C 3,9 C 91 % 1026,9 hPa 0,0 l/m 2 min 0 min 192 W/m 6,4 km/h (2 Bft) 97,83 %
22.11.2021 11:04 5,4 C 6,7 C 4,4 C 91 % 1027,0 hPa 0,0 l/m 2 min 0 min 164 W/m 9,7 km/h (2 Bft) 100,00 %
22.11.2021 11:06 5,5 C 6,7 C 4,4 C 91 % 1026,9 hPa 0,0 l/m 0 min 0 min 138 W/m 16,1 km/h (3 Bft) 97,87 %
22.11.2021 11:08 5,5 C 6,7 C 4,4 C 91 % 1026,9 hPa 0,0 l/m 0 min 0 min 143 W/m 12,9 km/h (3 Bft) 97,87 %
22.11.2021 11:10 5,5 C 6,7 C 4,4 C 91 % 1026,9 hPa 0,0 l/m 0 min 0 min 113 W/m 16,1 km/h (3 Bft) 97,87 %
22.11.2021 11:12 5,6 C 6,7 C 4,4 C 90 % 1027,0 hPa 0,0 l/m 0 min 0 min 135 W/m 9,7 km/h (2 Bft) 97,87 %
22.11.2021 11:14 5,7 C 6,7 C 4,4 C 91 % 1027,0 hPa 0,0 l/m 0 min 0 min 142 W/m 12,9 km/h (3 Bft) 97,83 %
22.11.2021 11:16 5,8 C 6,7 C 4,4 C 90 % 1027,0 hPa 0,0 l/m 0 min 0 min 110 W/m 6,4 km/h (2 Bft) 91,49 %
22.11.2021 11:18 5,8 C 6,7 C 4,4 C 90 % 1027,0 hPa 0,0 l/m 2 min 0 min 162 W/m 12,9 km/h (3 Bft) 95,74 %
22.11.2021 11:20 5,8 C 6,7 C 4,4 C 90 % 1027,1 hPa 0,0 l/m 2 min 0 min 164 W/m 6,4 km/h (2 Bft) 95,74 %
22.11.2021 11:22 5,9 C 6,7 C 4,4 C 90 % 1027,1 hPa 0,0 l/m 2 min 0 min 160 W/m 12,9 km/h (3 Bft) 93,62 %
22.11.2021 11:24 5,9 C 7,2 C 4,4 C 90 % 1027,2 hPa 0,0 l/m 2 min 0 min 178 W/m 9,7 km/h (2 Bft) 38,89 %
22.11.2021 11:26 6,0 C 6,7 C 5,0 C 89 % 1027,2 hPa 0,0 l/m 2 min 0 min 178 W/m 12,9 km/h (3 Bft) 97,14 %
22.11.2021 11:28 6,0 C 6,7 C 4,4 C 89 % 1027,2 hPa 0,0 l/m 2 min 0 min 164 W/m 6,4 km/h (2 Bft) 97,87 %
22.11.2021 11:30 6,0 C 6,7 C 4,4 C 89 % 1027,1 hPa 0,0 l/m 2 min 0 min 158 W/m 9,7 km/h (2 Bft) 95,74 %
22.11.2021 11:35 6,0 C 6,7 C 4,4 C 88 % 1027,1 hPa 0,0 l/m 0 min 0 min 113 W/m 16,1 km/h (3 Bft) 98,44 %
22.11.2021 11:36 6,0 C 6,7 C 4,4 C 88 % 1027,1 hPa 0,0 l/m 0 min 0 min 119 W/m 6,4 km/h (2 Bft) 91,30 %
22.11.2021 11:38 6,1 C 6,7 C 4,4 C 88 % 1027,2 hPa 0,0 l/m 0 min 0 min 109 W/m 12,9 km/h (3 Bft) 95,74 %
22.11.2021 11:40 6,0 C 6,7 C 4,4 C 88 % 1027,1 hPa 0,0 l/m 0 min 0 min 87 W/m 12,9 km/h (3 Bft) 95,74 %
22.11.2021 11:42 6,0 C 6,1 C 4,4 C 87 % 1027,1 hPa 0,0 l/m 0 min 0 min 84 W/m 6,4 km/h (2 Bft) 93,62 %
22.11.2021 11:44 6,0 C 6,1 C 4,4 C 88 % 1027,1 hPa 0,0 l/m 0 min 0 min 74 W/m 9,7 km/h (2 Bft) 95,74 %
22.11.2021 11:46 5,9 C 6,1 C 3,9 C 87 % 1027,1 hPa 0,0 l/m 0 min 0 min 61 W/m 9,7 km/h (2 Bft) 97,87 %
22.11.2021 11:48 5,9 C 6,1 C 3,9 C 87 % 1027,1 hPa 0,0 l/m 0 min 0 min 49 W/m 6,4 km/h (2 Bft) 97,83 %
22.11.2021 11:50 5,8 C 5,6 C 3,9 C 87 % 1027,2 hPa 0,0 l/m 0 min 0 min 47 W/m 6,4 km/h (2 Bft) 97,87 %
22.11.2021 11:52 5,7 C 5,6 C 3,9 C 87 % 1027,1 hPa 0,0 l/m 0 min 0 min 40 W/m 9,7 km/h (2 Bft) 93,62 %
22.11.2021 11:54 5,6 C 5,6 C 3,3 C 87 % 1027,2 hPa 0,0 l/m 0 min 0 min 46 W/m 6,4 km/h (2 Bft) 97,87 %
22.11.2021 11:56 5,6 C 5,6 C 3,3 C 87 % 1027,1 hPa 0,0 l/m 0 min 0 min 46 W/m 6,4 km/h (2 Bft) 95,74 %
22.11.2021 11:58 5,6 C 5,6 C 3,3 C 87 % 1027,1 hPa 0,0 l/m 0 min 0 min 46 W/m 9,7 km/h (2 Bft) 97,87 %
22.11.2021 12:00 5,6 C 5,6 C 3,3 C 87 % 1027,1 hPa 0,0 l/m 0 min 0 min 45 W/m 9,7 km/h (2 Bft) 95,65 %
22.11.2021 12:02 5,5 C 5,6 C 3,3 C 87 % 1027,1 hPa 0,0 l/m 0 min 0 min 46 W/m 16,1 km/h (3 Bft) 95,74 %
22.11.2021 12:04 5,5 C 5,6 C 3,3 C 87 % 1027,1 hPa 0,0 l/m 0 min 0 min 47 W/m 12,9 km/h (3 Bft) 97,87 %
22.11.2021 12:06 5,5 C 5,6 C 3,3 C 87 % 1027,1 hPa 0,0 l/m 0 min 0 min 50 W/m 9,7 km/h (2 Bft) 95,74 %
22.11.2021 12:08 5,5 C 5,6 C 3,3 C 87 % 1027,2 hPa 0,0 l/m 0 min 0 min 52 W/m 6,4 km/h (2 Bft) 97,87 %
22.11.2021 12:10 5,6 C 5,6 C 3,9 C 87 % 1027,2 hPa 0,0 l/m 0 min 0 min 56 W/m 9,7 km/h (2 Bft) 100,00 %
22.11.2021 12:12 5,6 C 5,6 C 3,9 C 88 % 1027,2 hPa 0,0 l/m 0 min 0 min 68 W/m 6,4 km/h (2 Bft) 97,83 %
22.11.2021 12:14 5,6 C 6,1 C 3,9 C 88 % 1027,2 hPa 0,0 l/m 0 min 0 min 80 W/m 6,4 km/h (2 Bft) 100,00 %
22.11.2021 12:16 5,7 C 6,1 C 3,9 C 88 % 1027,2 hPa 0,0 l/m 0 min 0 min 75 W/m 6,4 km/h (2 Bft) 97,87 %
22.11.2021 12:18 5,8 C 6,1 C 3,9 C 88 % 1027,1 hPa 0,0 l/m 0 min 0 min 89 W/m 9,7 km/h (2 Bft) 100,00 %
22.11.2021 12:20 5,8 C 6,1 C 3,9 C 87 % 1027,2 hPa 0,0 l/m 0 min 0 min 112 W/m 12,9 km/h (3 Bft) 100,00 %
22.11.2021 12:22 5,8 C 6,1 C 3,9 C 87 % 1027,1 hPa 0,0 l/m 0 min 0 min 89 W/m 9,7 km/h (2 Bft) 97,87 %
22.11.2021 12:24 5,8 C 6,1 C 3,9 C 87 % 1027,2 hPa 0,0 l/m 0 min 0 min 73 W/m 9,7 km/h (2 Bft) 100,00 %
22.11.2021 12:26 5,8 C 6,1 C 3,9 C 86 % 1027,2 hPa 0,0 l/m 0 min 0 min 95 W/m 9,7 km/h (2 Bft) 100,00 %
22.11.2021 12:28 5,8 C 6,1 C 3,9 C 86 % 1027,2 hPa 0,0 l/m 0 min 0 min 87 W/m 9,7 km/h (2 Bft) 97,87 %
22.11.2021 12:30 5,8 C 6,1 C 3,9 C 86 % 1027,2 hPa 0,0 l/m 0 min 0 min 67 W/m 12,9 km/h (3 Bft) 100,00 %
22.11.2021 12:32 5,8 C 6,1 C 3,9 C 86 % 1027,3 hPa 0,0 l/m 0 min 0 min 67 W/m 19,3 km/h (3 Bft) 100,00 %
22.11.2021 12:34 5,8 C 6,1 C 3,9 C 86 % 1027,3 hPa 0,0 l/m 0 min 0 min 58 W/m 9,7 km/h (2 Bft) 100,00 %
22.11.2021 12:36 5,8 C 5,6 C 3,9 C 86 % 1027,3 hPa 0,0 l/m 0 min 0 min 48 W/m 16,1 km/h (3 Bft) 100,00 %
22.11.2021 12:38 5,7 C 6,1 C 3,3 C 86 % 1027,3 hPa 0,0 l/m 0 min 0 min 78 W/m 9,7 km/h (2 Bft) 100,00 %
22.11.2021 12:40 5,7 C 6,1 C 3,3 C 86 % 1027,4 hPa 0,0 l/m 0 min 0 min 64 W/m 12,9 km/h (3 Bft) 97,87 %
22.11.2021 12:42 5,7 C 6,1 C 3,3 C 85 % 1027,3 hPa 0,0 l/m 0 min 0 min 75 W/m 12,9 km/h (3 Bft) 97,87 %
22.11.2021 12:44 5,7 C 6,7 C 3,3 C 85 % 1027,3 hPa 0,0 l/m 2 min 0 min 162 W/m 16,1 km/h (3 Bft) 100,00 %
22.11.2021 12:46 5,7 C 6,7 C 3,3 C 85 % 1027,3 hPa 0,0 l/m 0 min 0 min 113 W/m 6,4 km/h (2 Bft) 100,00 %
22.11.2021 12:48 5,8 C 7,2 C 3,3 C 85 % 1027,2 hPa 0,0 l/m 0 min 0 min 96 W/m 16,1 km/h (3 Bft) 100,00 %
22.11.2021 12:50 5,8 C 8,9 C 3,3 C 85 % 1027,3 hPa 0,0 l/m 2 min 0 min 205 W/m 9,7 km/h (2 Bft) 100,00 %
22.11.2021 12:52 5,8 C 9,4 C 3,3 C 85 % 1027,2 hPa 0,0 l/m 2 min 0 min 178 W/m 12,9 km/h (3 Bft) 97,14 %
22.11.2021 12:54 5,9 C 10,6 C 3,3 C 85 % 1027,2 hPa 0,0 l/m 2 min 0 min 164 W/m 9,7 km/h (2 Bft) 100,00 %
22.11.2021 12:56 5,9 C 11,7 C 3,3 C 85 % 1027,2 hPa 0,0 l/m 2 min 0 min 274 W/m 6,4 km/h (2 Bft) 100,00 %
22.11.2021 12:58 6,0 C 12,8 C 3,9 C 85 % 1027,2 hPa 0,0 l/m 2 min 0 min 289 W/m 9,7 km/h (2 Bft) 100,00 %
22.11.2021 13:00 6,1 C 13,3 C 3,9 C 85 % 1027,2 hPa 0,0 l/m 2 min 0 min 272 W/m 9,7 km/h (2 Bft) 100,00 %
22.11.2021 13:02 6,2 C 13,9 C 3,9 C 85 % 1027,2 hPa 0,0 l/m 2 min 0 min 299 W/m 6,4 km/h (2 Bft) 96,00 %
22.11.2021 13:04 6,3 C 13,3 C 3,9 C 84 % 1027,2 hPa 0,0 l/m 0 min 0 min 120 W/m 12,9 km/h (3 Bft) 97,14 %
22.11.2021 13:06 6,4 C 15,0 C 3,9 C 84 % 1027,1 hPa 0,0 l/m 2 min 0 min 233 W/m 6,4 km/h (2 Bft) 96,43 %
22.11.2021 13:08 6,4 C 15,6 C 3,9 C 84 % 1027,2 hPa 0,0 l/m 2 min 0 min 318 W/m 9,7 km/h (2 Bft) 97,83 %
22.11.2021 13:10 6,5 C 16,7 C 3,9 C 84 % 1027,2 hPa 0,0 l/m 2 min 0 min 323 W/m 9,7 km/h (2 Bft) 97,87 %
22.11.2021 13:12 6,6 C 16,7 C 3,9 C 84 % 1027,2 hPa 0,0 l/m 2 min 0 min 332 W/m 6,4 km/h (2 Bft) 94,00 %
22.11.2021 13:14 6,7 C 16,7 C 3,9 C 84 % 1027,3 hPa 0,0 l/m 2 min 0 min 316 W/m 9,7 km/h (2 Bft) 97,14 %
22.11.2021 13:16 6,8 C 16,1 C 3,9 C 82 % 1027,2 hPa 0,0 l/m 2 min 0 min 304 W/m 9,7 km/h (2 Bft) 92,86 %
22.11.2021 13:18 6,9 C 13,9 C 3,9 C 82 % 1027,2 hPa 0,0 l/m 2 min 0 min 304 W/m 9,7 km/h (2 Bft) 96,00 %
22.11.2021 13:20 6,9 C 11,7 C 3,9 C 81 % 1027,2 hPa 0,0 l/m 0 min 0 min 134 W/m 12,9 km/h (3 Bft) 94,29 %
22.11.2021 13:22 6,9 C 10,6 C 3,9 C 80 % 1027,2 hPa 0,0 l/m 0 min 0 min 58 W/m 9,7 km/h (2 Bft) 94,55 %
22.11.2021 13:24 6,8 C 9,4 C 3,9 C 80 % 1027,2 hPa 0,0 l/m 0 min 0 min 62 W/m 9,7 km/h (2 Bft) 94,00 %
22.11.2021 13:26 6,8 C 9,4 C 3,9 C 79 % 1027,2 hPa 0,0 l/m 0 min 0 min 54 W/m 9,7 km/h (2 Bft) 95,74 %
22.11.2021 13:28 6,8 C 8,3 C 3,9 C 79 % 1027,2 hPa 0,0 l/m 0 min 0 min 50 W/m 12,9 km/h (3 Bft) 94,29 %
22.11.2021 13:30 6,7 C 10,0 C 3,9 C 79 % 1027,2 hPa 0,0 l/m 2 min 0 min 149 W/m 9,7 km/h (2 Bft) 94,64 %
22.11.2021 13:32 6,7 C 11,1 C 3,9 C 79 % 1027,2 hPa 0,0 l/m 2 min 0 min 299 W/m 9,7 km/h (2 Bft) 91,84 %
22.11.2021 13:34 6,7 C 11,7 C 3,9 C 78 % 1027,2 hPa 0,0 l/m 2 min 0 min 299 W/m 6,4 km/h (2 Bft) 94,29 %
22.11.2021 13:36 6,8 C 12,2 C 3,9 C 78 % 1027,3 hPa 0,0 l/m 2 min 0 min 300 W/m 12,9 km/h (3 Bft) 92,86 %
22.11.2021 13:38 6,8 C 12,8 C 3,9 C 77 % 1027,3 hPa 0,0 l/m 2 min 0 min 280 W/m 9,7 km/h (2 Bft) 90,00 %
22.11.2021 13:40 6,9 C 13,3 C 3,9 C 77 % 1027,2 hPa 0,0 l/m 2 min 0 min 303 W/m 16,1 km/h (3 Bft) 93,62 %
22.11.2021 13:42 6,9 C 13,3 C 3,9 C 76 % 1027,3 hPa 0,0 l/m 2 min 0 min 295 W/m 19,3 km/h (3 Bft) 94,29 %
22.11.2021 13:44 7,0 C 12,8 C 3,9 C 76 % 1027,3 hPa 0,0 l/m 2 min 0 min 294 W/m 16,1 km/h (3 Bft) 92,73 %
22.11.2021 13:46 7,0 C 12,8 C 3,9 C 75 % 1027,3 hPa 0,0 l/m 2 min 0 min 284 W/m 19,3 km/h (3 Bft) 93,62 %
22.11.2021 13:48 7,1 C 11,7 C 3,9 C 75 % 1027,3 hPa 0,0 l/m 2 min 0 min 225 W/m 9,7 km/h (2 Bft) 91,49 %
22.11.2021 13:50 7,1 C 10,0 C 3,9 C 75 % 1027,3 hPa 0,0 l/m 0 min 0 min 80 W/m 9,7 km/h (2 Bft) 92,00 %
22.11.2021 13:52 7,0 C 10,0 C 3,9 C 75 % 1027,3 hPa 0,0 l/m 2 min 0 min 157 W/m 16,1 km/h (3 Bft) 97,14 %
22.11.2021 13:54 7,0 C 10,6 C 3,9 C 75 % 1027,3 hPa 0,0 l/m 2 min 0 min 285 W/m 16,1 km/h (3 Bft) 90,57 %
22.11.2021 13:56 7,0 C 10,6 C 3,9 C 74 % 1027,4 hPa 0,0 l/m 2 min 0 min 278 W/m 16,1 km/h (3 Bft) 91,84 %
22.11.2021 13:58 7,1 C 11,7 C 3,9 C 75 % 1027,4 hPa 0,0 l/m 2 min 0 min 276 W/m 9,7 km/h (2 Bft) 92,00 %
22.11.2021 14:00 7,1 C 12,8 C 3,9 C 75 % 1027,4 hPa 0,0 l/m 2 min 0 min 274 W/m 9,7 km/h (2 Bft) 95,74 %
22.11.2021 14:02 7,2 C 12,8 C 3,9 C 75 % 1027,4 hPa 0,0 l/m 2 min 0 min 268 W/m 6,4 km/h (2 Bft) 91,43 %
22.11.2021 14:04 7,2 C 12,2 C 3,9 C 75 % 1027,3 hPa 0,0 l/m 2 min 0 min 267 W/m 12,9 km/h (3 Bft) 95,74 %
22.11.2021 14:06 7,3 C 12,2 C 3,9 C 75 % 1027,3 hPa 0,0 l/m 2 min 0 min 265 W/m 9,7 km/h (2 Bft) 96,43 %
22.11.2021 14:08 7,3 C 11,7 C 3,9 C 74 % 1027,3 hPa 0,0 l/m 2 min 0 min 262 W/m 19,3 km/h (3 Bft) 93,88 %
22.11.2021 14:10 7,4 C 11,7 C 3,9 C 73 % 1027,4 hPa 0,0 l/m 2 min 0 min 259 W/m 16,1 km/h (3 Bft) 94,29 %
22.11.2021 14:12 7,4 C 11,1 C 3,9 C 73 % 1027,4 hPa 0,0 l/m 2 min 0 min 254 W/m 16,1 km/h (3 Bft) 98,11 %
22.11.2021 14:14 7,4 C 10,6 C 3,9 C 72 % 1027,4 hPa 0,0 l/m 2 min 0 min 249 W/m 16,1 km/h (3 Bft) 96,00 %
22.11.2021 14:16 7,4 C 10,6 C 3,9 C 72 % 1027,4 hPa 0,0 l/m 2 min 0 min 189 W/m 16,1 km/h (3 Bft) 98,00 %
22.11.2021 14:18 7,5 C 11,1 C 3,9 C 72 % 1027,4 hPa 0,0 l/m 2 min 0 min 206 W/m 12,9 km/h (3 Bft) 94,29 %
22.11.2021 14:20 7,5 C 11,7 C 3,9 C 71 % 1027,5 hPa 0,0 l/m 2 min 0 min 244 W/m 16,1 km/h (3 Bft) 98,18 %
22.11.2021 14:22 7,5 C 11,1 C 3,9 C 70 % 1027,5 hPa 0,0 l/m 2 min 0 min 240 W/m 25,7 km/h (4 Bft) 95,74 %
22.11.2021 14:24 7,5 C 11,1 C 3,9 C 70 % 1027,6 hPa 0,0 l/m 2 min 0 min 235 W/m 19,3 km/h (3 Bft) 98,00 %
22.11.2021 14:26 7,5 C 11,7 C 3,9 C 71 % 1027,5 hPa 0,0 l/m 2 min 0 min 229 W/m 9,7 km/h (2 Bft) 97,14 %
22.11.2021 14:28 7,5 C 12,8 C 3,9 C 72 % 1027,6 hPa 0,0 l/m 2 min 0 min 226 W/m 9,7 km/h (2 Bft) 98,21 %
22.11.2021 14:30 7,5 C 12,8 C 3,9 C 72 % 1027,6 hPa 0,0 l/m 2 min 0 min 221 W/m 6,4 km/h (2 Bft) 54,35 %
22.11.2021 14:32 7,5 C 13,9 C 3,9 C 71 % 1027,6 hPa 0,0 l/m 2 min 0 min 218 W/m 6,4 km/h (2 Bft) 96,77 %
22.11.2021 14:34 7,5 C 13,9 C 3,9 C 71 % 1027,5 hPa 0,0 l/m 2 min 0 min 201 W/m 12,9 km/h (3 Bft) 96,43 %
22.11.2021 14:36 7,5 C 13,3 C 3,9 C 71 % 1027,6 hPa 0,0 l/m 2 min 0 min 202 W/m 12,9 km/h (3 Bft) 93,62 %
22.11.2021 14:38 7,5 C 12,2 C 3,9 C 71 % 1027,6 hPa 0,0 l/m 2 min 0 min 205 W/m 9,7 km/h (2 Bft) 100,00 %
22.11.2021 14:40 7,5 C 11,7 C 3,9 C 71 % 1027,6 hPa 0,0 l/m 2 min 0 min 202 W/m 12,9 km/h (3 Bft) 100,00 %
22.11.2021 14:42 7,5 C 11,1 C 3,9 C 71 % 1027,6 hPa 0,0 l/m 2 min 0 min 196 W/m 12,9 km/h (3 Bft) 100,00 %
22.11.2021 14:44 7,5 C 11,7 C 3,9 C 71 % 1027,7 hPa 0,0 l/m 2 min 0 min 190 W/m 9,7 km/h (2 Bft) 100,00 %
22.11.2021 14:46 7,5 C 10,6 C 3,9 C 71 % 1027,7 hPa 0,0 l/m 2 min 0 min 185 W/m 9,7 km/h (2 Bft) 100,00 %
22.11.2021 14:48 7,5 C 10,0 C 3,3 C 72 % 1027,7 hPa 0,0 l/m 2 min 0 min 175 W/m 9,7 km/h (2 Bft) 98,21 %
22.11.2021 14:50 7,5 C 8,9 C 3,3 C 72 % 1027,7 hPa 0,0 l/m 2 min 0 min 138 W/m 9,7 km/h (2 Bft) 100,00 %
22.11.2021 14:52 7,5 C 7,8 C 3,3 C 72 % 1027,7 hPa 0,0 l/m 2 min 0 min 167 W/m 12,9 km/h (3 Bft) 100,00 %
22.11.2021 14:54 7,4 C 7,8 C 3,3 C 72 % 1027,7 hPa 0,0 l/m 2 min 0 min 156 W/m 6,4 km/h (2 Bft) 100,00 %
22.11.2021 14:56 7,4 C 7,2 C 3,3 C 72 % 1027,6 hPa 0,0 l/m 2 min 0 min 134 W/m 6,4 km/h (2 Bft) 100,00 %
22.11.2021 14:58 7,4 C 6,7 C 3,3 C 73 % 1027,7 hPa 0,0 l/m 2 min 0 min 118 W/m 9,7 km/h (2 Bft) 100,00 %
22.11.2021 15:00 7,3 C 6,7 C 3,3 C 73 % 1027,7 hPa 0,0 l/m 2 min 0 min 139 W/m 9,7 km/h (2 Bft) 100,00 %
22.11.2021 15:02 7,3 C 6,7 C 3,3 C 73 % 1027,7 hPa 0,0 l/m 2 min 0 min 130 W/m 16,1 km/h (3 Bft) 98,11 %
22.11.2021 15:04 7,2 C 6,7 C 3,3 C 73 % 1027,7 hPa 0,0 l/m 2 min 0 min 116 W/m 9,7 km/h (2 Bft) 95,92 %
22.11.2021 15:06 7,2 C 6,1 C 3,3 C 73 % 1027,8 hPa 0,0 l/m 2 min 0 min 125 W/m 3,2 km/h (1 Bft) 98,00 %
22.11.2021 15:08 7,1 C 6,1 C 3,3 C 73 % 1027,8 hPa 0,0 l/m 0 min 0 min 73 W/m 3,2 km/h (1 Bft) 97,14 %
22.11.2021 15:10 7,1 C 6,7 C 3,3 C 73 % 1027,8 hPa 0,0 l/m 0 min 0 min 40 W/m 6,4 km/h (2 Bft) 100,00 %
22.11.2021 15:12 7,0 C 6,1 C 3,3 C 74 % 1027,8 hPa 0,0 l/m 0 min 0 min 33 W/m 6,4 km/h (2 Bft) 100,00 %
22.11.2021 15:14 7,0 C 6,1 C 3,3 C 74 % 1027,7 hPa 0,0 l/m 0 min 0 min 30 W/m 6,4 km/h (2 Bft) 100,00 %
22.11.2021 15:16 7,0 C 6,1 C 3,3 C 74 % 1027,8 hPa 0,0 l/m 0 min 0 min 29 W/m 9,7 km/h (2 Bft) 97,14 %
22.11.2021 15:18 7,0 C 6,1 C 3,3 C 74 % 1027,8 hPa 0,0 l/m 0 min 0 min 28 W/m 6,4 km/h (2 Bft) 100,00 %
22.11.2021 15:20 7,0 C 6,1 C 3,3 C 74 % 1027,8 hPa 0,0 l/m 0 min 0 min 28 W/m 3,2 km/h (1 Bft) 100,00 %
22.11.2021 15:22 6,9 C 6,1 C 3,3 C 74 % 1027,9 hPa 0,0 l/m 0 min 0 min 28 W/m 6,4 km/h (2 Bft) 100,00 %
22.11.2021 15:24 6,9 C 6,1 C 3,3 C 74 % 1027,9 hPa 0,0 l/m 0 min 0 min 28 W/m 6,4 km/h (2 Bft) 100,00 %
22.11.2021 15:26 6,9 C 6,1 C 3,3 C 74 % 1027,9 hPa 0,0 l/m 0 min 0 min 26 W/m 12,9 km/h (3 Bft) 100,00 %
22.11.2021 15:28 6,8 C 6,1 C 3,3 C 74 % 1027,9 hPa 0,0 l/m 0 min 0 min 26 W/m 12,9 km/h (3 Bft) 97,14 %
22.11.2021 15:30 6,8 C 6,1 C 3,3 C 74 % 1027,9 hPa 0,0 l/m 0 min 0 min 26 W/m 6,4 km/h (2 Bft) 98,18 %
22.11.2021 15:32 6,8 C 6,1 C 3,3 C 74 % 1027,9 hPa 0,0 l/m 0 min 0 min 26 W/m 12,9 km/h (3 Bft) 96,00 %
22.11.2021 15:34 6,7 C 6,1 C 3,3 C 74 % 1027,9 hPa 0,0 l/m 0 min 0 min 26 W/m 9,7 km/h (2 Bft) 97,37 %
22.11.2021 15:36 6,7 C 6,1 C 3,3 C 74 % 1028,0 hPa 0,0 l/m 0 min 0 min 25 W/m 6,4 km/h (2 Bft) 97,87 %
22.11.2021 15:38 6,7 C 6,1 C 3,3 C 74 % 1028,0 hPa 0,0 l/m 0 min 0 min 25 W/m 16,1 km/h (3 Bft) 96,43 %
22.11.2021 15:40 6,6 C 6,1 C 3,3 C 74 % 1028,0 hPa 0,0 l/m 0 min 0 min 25 W/m 6,4 km/h (2 Bft) 97,83 %
22.11.2021 15:42 6,6 C 6,1 C 2,8 C 74 % 1028,1 hPa 0,0 l/m 0 min 0 min 23 W/m 6,4 km/h (2 Bft) 94,74 %
22.11.2021 15:44 6,6 C 6,1 C 2,8 C 75 % 1028,1 hPa 0,0 l/m 0 min 0 min 23 W/m 6,4 km/h (2 Bft) 97,87 %
22.11.2021 15:46 6,6 C 5,6 C 2,8 C 74 % 1028,1 hPa 0,0 l/m 0 min 0 min 23 W/m 3,2 km/h (1 Bft) 98,21 %
22.11.2021 15:48 6,5 C 5,6 C 2,8 C 74 % 1028,1 hPa 0,0 l/m 0 min 0 min 21 W/m 12,9 km/h (3 Bft) 94,74 %
22.11.2021 15:50 6,5 C 5,6 C 2,8 C 74 % 1028,1 hPa 0,0 l/m 0 min 0 min 21 W/m 6,4 km/h (2 Bft) 97,87 %
22.11.2021 15:52 6,5 C 5,6 C 2,8 C 74 % 1028,1 hPa 0,0 l/m 0 min 0 min 21 W/m 6,4 km/h (2 Bft) 94,55 %
22.11.2021 15:54 6,4 C 5,6 C 2,8 C 74 % 1028,1 hPa 0,0 l/m 0 min 0 min 20 W/m 6,4 km/h (2 Bft) 97,37 %
22.11.2021 15:56 6,4 C 5,6 C 2,8 C 74 % 1028,1 hPa 0,0 l/m 0 min 0 min 19 W/m 6,4 km/h (2 Bft) 93,62 %
22.11.2021 15:58 6,4 C 5,6 C 2,8 C 74 % 1028,1 hPa 0,0 l/m 0 min 0 min 19 W/m 12,9 km/h (3 Bft) 92,86 %
22.11.2021 16:00 6,4 C 5,6 C 2,8 C 74 % 1028,1 hPa 0,0 l/m 0 min 0 min 19 W/m 9,7 km/h (2 Bft) 94,74 %
22.11.2021 16:02 6,4 C 5,6 C 2,8 C 74 % 1028,1 hPa 0,0 l/m 0 min 0 min 18 W/m 9,7 km/h (2 Bft) 95,74 %
22.11.2021 16:04 6,4 C 5,6 C 2,8 C 74 % 1028,1 hPa 0,0 l/m 0 min 0 min 17 W/m 12,9 km/h (3 Bft) 96,36 %
22.11.2021 16:06 6,3 C 5,6 C 2,8 C 74 % 1028,1 hPa 0,0 l/m 0 min 0 min 16 W/m 6,4 km/h (2 Bft) 94,74 %
22.11.2021 16:08 6,3 C 5,6 C 2,8 C 74 % 1028,1 hPa 0,0 l/m 0 min 0 min 16 W/m 6,4 km/h (2 Bft) 95,74 %
22.11.2021 16:10 6,3 C 5,0 C 2,8 C 74 % 1028,2 hPa 0,0 l/m 0 min 0 min 14 W/m 9,7 km/h (2 Bft) 97,87 %
22.11.2021 16:12 6,2 C 5,0 C 2,2 C 74 % 1028,1 hPa 0,0 l/m 0 min 0 min 14 W/m 6,4 km/h (2 Bft) 96,43 %
22.11.2021 16:14 6,2 C 5,0 C 2,2 C 74 % 1028,1 hPa 0,0 l/m 0 min 0 min 12 W/m 6,4 km/h (2 Bft) 94,74 %
22.11.2021 16:16 6,1 C 5,0 C 2,2 C 74 % 1028,2 hPa 0,0 l/m 0 min 0 min 12 W/m 3,2 km/h (1 Bft) 100,00 %
22.11.2021 16:18 6,1 C 5,0 C 2,2 C 74 % 1028,2 hPa 0,0 l/m 0 min 0 min 12 W/m 3,2 km/h (1 Bft) 98,21 %
22.11.2021 16:20 6,1 C 5,0 C 2,2 C 75 % 1028,2 hPa 0,0 l/m 0 min 0 min 11 W/m 12,9 km/h (3 Bft) 100,00 %
22.11.2021 16:22 6,0 C 5,0 C 2,2 C 75 % 1028,3 hPa 0,0 l/m 0 min 0 min 11 W/m 6,4 km/h (2 Bft) 97,87 %
22.11.2021 16:24 6,0 C 5,0 C 2,2 C 75 % 1028,3 hPa 0,0 l/m 0 min 0 min 10 W/m 3,2 km/h (1 Bft) 100,00 %
22.11.2021 16:26 6,0 C 5,0 C 2,2 C 75 % 1028,3 hPa 0,0 l/m 0 min 0 min 9 W/m 3,2 km/h (1 Bft) 100,00 %
22.11.2021 16:28 5,9 C 4,4 C 2,2 C 75 % 1028,4 hPa 0,0 l/m 0 min 0 min 9 W/m 0,0 km/h (0 Bft) 100,00 %
22.11.2021 16:30 5,9 C 4,4 C 1,7 C 75 % 1028,4 hPa 0,0 l/m 0 min 0 min 7 W/m 12,9 km/h (3 Bft) 98,21 %
22.11.2021 16:32 5,9 C 4,4 C 1,7 C 76 % 1028,4 hPa 0,0 l/m 0 min 0 min 7 W/m 3,2 km/h (1 Bft) 100,00 %
22.11.2021 16:34 5,9 C 4,4 C 1,7 C 76 % 1028,4 hPa 0,0 l/m 0 min 0 min 6 W/m 3,2 km/h (1 Bft) 100,00 %
22.11.2021 16:36 5,8 C 4,4 C 1,7 C 76 % 1028,4 hPa 0,0 l/m 0 min 0 min 5 W/m 3,2 km/h (1 Bft) 100,00 %
22.11.2021 16:38 5,8 C 4,4 C 1,7 C 76 % 1028,4 hPa 0,0 l/m 0 min 0 min 5 W/m 0,0 km/h (0 Bft) 97,37 %
22.11.2021 16:40 5,8 C 3,9 C 1,7 C 76 % 1028,5 hPa 0,0 l/m 0 min 0 min 3 W/m 6,4 km/h (2 Bft) 97,83 %
22.11.2021 16:42 5,7 C 3,9 C 1,7 C 76 % 1028,5 hPa 0,0 l/m 0 min 0 min 0 W/m 6,4 km/h (2 Bft) 97,87 %
22.11.2021 16:44 5,7 C 3,9 C 1,7 C 77 % 1028,5 hPa 0,0 l/m 0 min 0 min 0 W/m 3,2 km/h (1 Bft) 95,74 %
22.11.2021 16:46 5,6 C 3,9 C 1,7 C 77 % 1028,5 hPa 0,0 l/m 0 min 0 min 0 W/m 6,4 km/h (2 Bft) 98,21 %
22.11.2021 16:48 5,6 C 3,9 C 1,1 C 77 % 1028,6 hPa 0,0 l/m 0 min 0 min 0 W/m 3,2 km/h (1 Bft) 97,83 %
22.11.2021 16:50 5,5 C 3,9 C 1,1 C 77 % 1028,6 hPa 0,0 l/m 0 min 0 min 0 W/m 3,2 km/h (1 Bft) 97,44 %
22.11.2021 16:52 5,5 C 3,9 C 1,1 C 77 % 1028,6 hPa 0,0 l/m 0 min 0 min 0 W/m 3,2 km/h (1 Bft) 97,83 %
22.11.2021 16:54 5,4 C 3,9 C 1,1 C 78 % 1028,6 hPa 0,0 l/m 0 min 0 min 0 W/m 3,2 km/h (1 Bft) 94,64 %
22.11.2021 16:56 5,4 C 3,9 C 1,1 C 78 % 1028,6 hPa 0,0 l/m 0 min 0 min 0 W/m 3,2 km/h (1 Bft) 97,37 %
22.11.2021 16:58 5,4 C 3,9 C 1,1 C 78 % 1028,7 hPa 0,0 l/m 0 min 0 min 0 W/m 6,4 km/h (2 Bft) 95,74 %
22.11.2021 17:00 5,3 C 3,3 C 1,1 C 78 % 1028,7 hPa 0,0 l/m 0 min 0 min 0 W/m 3,2 km/h (1 Bft) 97,87 %
22.11.2021 17:02 5,3 C 3,3 C 1,1 C 78 % 1028,6 hPa 0,0 l/m 0 min 0 min 0 W/m 6,4 km/h (2 Bft) 98,18 %
22.11.2021 17:04 5,2 C 3,3 C 1,1 C 78 % 1028,6 hPa 0,0 l/m 0 min 0 min 0 W/m 9,7 km/h (2 Bft) 97,37 %
22.11.2021 17:06 5,1 C 3,3 C 1,1 C 79 % 1028,6 hPa 0,0 l/m 0 min 0 min 0 W/m 3,2 km/h (1 Bft) 97,87 %
22.11.2021 17:08 5,1 C 3,3 C 1,1 C 79 % 1028,6 hPa 0,0 l/m 0 min 0 min 0 W/m 6,4 km/h (2 Bft) 100,00 %
22.11.2021 17:10 5,0 C 3,3 C 1,1 C 79 % 1028,7 hPa 0,0 l/m 0 min 0 min 0 W/m 3,2 km/h (1 Bft) 100,00 %
22.11.2021 17:12 5,0 C 3,9 C 1,1 C 79 % 1028,7 hPa 0,0 l/m 0 min 0 min 0 W/m 3,2 km/h (1 Bft) 98,18 %
22.11.2021 17:14 4,9 C 3,3 C 1,1 C 80 % 1028,7 hPa 0,0 l/m 0 min 0 min 0 W/m 3,2 km/h (1 Bft) 97,37 %
22.11.2021 17:16 4,9 C 3,3 C 1,1 C 80 % 1028,6 hPa 0,0 l/m 0 min 0 min 0 W/m 6,4 km/h (2 Bft) 59,57 %
22.11.2021 17:18 4,9 C 3,3 C 1,1 C 80 % 1028,7 hPa 0,0 l/m 0 min 0 min 0 W/m 3,2 km/h (1 Bft) 98,08 %
22.11.2021 17:20 4,8 C 3,3 C 1,1 C 80 % 1028,7 hPa 0,0 l/m 0 min 0 min 0 W/m 3,2 km/h (1 Bft) 97,37 %
22.11.2021 17:22 4,8 C 3,3 C 1,1 C 80 % 1028,8 hPa 0,0 l/m 0 min 0 min 0 W/m 3,2 km/h (1 Bft) 97,87 %
22.11.2021 17:24 4,8 C 3,3 C 1,1 C 80 % 1028,7 hPa 0,0 l/m 0 min 0 min 0 W/m 3,2 km/h (1 Bft) 96,36 %
22.11.2021 17:26 4,7 C 3,3 C 0,6 C 80 % 1028,8 hPa 0,0 l/m 0 min 0 min 0 W/m 0,0 km/h (0 Bft) 97,37 %
22.11.2021 17:28 4,7 C 3,3 C 0,6 C 80 % 1028,7 hPa 0,0 l/m 0 min 0 min 0 W/m 0,0 km/h (0 Bft) 95,74 %
22.11.2021 17:30 4,6 C 3,3 C 0,6 C 80 % 1028,8 hPa 0,0 l/m 0 min 0 min 0 W/m 0,0 km/h (0 Bft) 96,43 %
22.11.2021 17:32 4,6 C 2,8 C 0,6 C 80 % 1028,8 hPa 0,0 l/m 0 min 0 min 0 W/m 3,2 km/h (1 Bft) 97,37 %
22.11.2021 17:34 4,6 C 2,8 C 0,6 C 80 % 1028,8 hPa 0,0 l/m 0 min 0 min 0 W/m 0,0 km/h (0 Bft) 97,87 %
22.11.2021 17:36 4,5 C 2,8 C 0,6 C 81 % 1028,8 hPa 0,0 l/m 0 min 0 min 0 W/m 3,2 km/h (1 Bft) 98,18 %
22.11.2021 17:38 4,5 C 2,8 C 0,6 C 80 % 1028,9 hPa 0,0 l/m 0 min 0 min 0 W/m 0,0 km/h (0 Bft) 94,74 %
22.11.2021 17:40 4,5 C 2,8 C 0,0 C 80 % 1028,8 hPa 0,0 l/m 0 min 0 min 0 W/m 0,0 km/h (0 Bft) 97,87 %
22.11.2021 17:42 4,5 C 2,8 C 0,0 C 80 % 1028,9 hPa 0,0 l/m 0 min 0 min 0 W/m 0,0 km/h (0 Bft) 96,43 %
22.11.2021 17:44 4,4 C 2,8 C 0,0 C 81 % 1029,0 hPa 0,0 l/m 0 min 0 min 0 W/m 0,0 km/h (0 Bft) 97,37 %
22.11.2021 17:46 4,4 C 2,8 C 0,0 C 81 % 1028,9 hPa 0,0 l/m 0 min 0 min 0 W/m 0,0 km/h (0 Bft) 95,74 %
22.11.2021 17:48 4,4 C 2,8 C 0,0 C 81 % 1029,0 hPa 0,0 l/m 0 min 0 min 0 W/m 0,0 km/h (0 Bft) 100,00 %
22.11.2021 17:50 4,3 C 2,8 C 0,0 C 81 % 1029,0 hPa 0,0 l/m 0 min 0 min 0 W/m 0,0 km/h (0 Bft) 100,00 %
22.11.2021 17:52 4,3 C 2,8 C 0,0 C 81 % 1029,0 hPa 0,0 l/m 0 min 0 min 0 W/m 0,0 km/h (0 Bft) 100,00 %
22.11.2021 17:54 4,3 C 2,8 C 0,0 C 81 % 1029,1 hPa 0,0 l/m 0 min 0 min 0 W/m 0,0 km/h (0 Bft) 96,43 %
22.11.2021 17:56 4,2 C 2,8 C 0,0 C 81 % 1029,0 hPa 0,0 l/m 0 min 0 min 0 W/m 0,0 km/h (0 Bft) 97,37 %
22.11.2021 17:58 4,2 C 2,2 C 0,0 C 81 % 1029,1 hPa 0,0 l/m 0 min 0 min 0 W/m 0,0 km/h (0 Bft) 100,00 %
22.11.2021 18:00 4,1 C 2,8 C 0,0 C 81 % 1029,1 hPa 0,0 l/m 0 min 0 min 0 W/m 0,0 km/h (0 Bft) 98,18 %
22.11.2021 18:02 4,1 C 2,2 C 0,0 C 81 % 1029,1 hPa 0,0 l/m 0 min 0 min 0 W/m 0,0 km/h (0 Bft) 98,00 %
22.11.2021 18:04 4,0 C 2,2 C 0,0 C 81 % 1029,0 hPa 0,0 l/m 0 min 0 min 0 W/m 3,2 km/h (1 Bft) 100,00 %
22.11.2021 18:06 4,0 C 2,2 C 0,0 C 81 % 1029,1 hPa 0,0 l/m 0 min 0 min 0 W/m 0,0 km/h (0 Bft) 100,00 %
22.11.2021 18:08 4,0 C 2,2 C -0,6 C 81 % 1029,1 hPa 0,0 l/m 0 min 0 min 0 W/m 0,0 km/h (0 Bft) 100,00 %
22.11.2021 18:10 4,0 C 2,2 C -0,6 C 81 % 1029,1 hPa 0,0 l/m 0 min 0 min 0 W/m 0,0 km/h (0 Bft) 100,00 %
22.11.2021 18:12 3,9 C 2,2 C -0,6 C 81 % 1029,1 hPa 0,0 l/m 0 min 0 min 0 W/m 0,0 km/h (0 Bft) 97,83 %
22.11.2021 18:14 3,9 C 2,2 C -0,6 C 81 % 1029,1 hPa 0,0 l/m 0 min 0 min 0 W/m 0,0 km/h (0 Bft) 98,21 %
22.11.2021 18:16 3,8 C 2,2 C -0,6 C 82 % 1029,2 hPa 0,0 l/m 0 min 0 min 0 W/m 3,2 km/h (1 Bft) 97,37 %
22.11.2021 18:18 3,8 C 2,2 C -0,6 C 82 % 1029,3 hPa 0,0 l/m 0 min 0 min 0 W/m 0,0 km/h (0 Bft) 97,87 %
22.11.2021 18:20 3,8 C 2,2 C -0,6 C 82 % 1029,2 hPa 0,0 l/m 0 min 0 min 0 W/m 0,0 km/h (0 Bft) 98,18 %
22.11.2021 18:22 3,7 C 2,2 C -0,6 C 82 % 1029,3 hPa 0,0 l/m 0 min 0 min 0 W/m 3,2 km/h (1 Bft) 94,87 %
22.11.2021 18:24 3,6 C 2,2 C -0,6 C 82 % 1029,3 hPa 0,0 l/m 0 min 0 min 0 W/m 0,0 km/h (0 Bft) 97,96 %
22.11.2021 18:26 3,6 C 2,2 C -0,6 C 82 % 1029,3 hPa 0,0 l/m 0 min 0 min 0 W/m 0,0 km/h (0 Bft) 97,87 %
22.11.2021 18:28 3,5 C 2,2 C -0,6 C 82 % 1029,3 hPa 0,0 l/m 0 min 0 min 0 W/m 0,0 km/h (0 Bft) 95,45 %
22.11.2021 18:30 3,5 C 2,2 C -0,6 C 82 % 1029,2 hPa 0,0 l/m 0 min 0 min 0 W/m 0,0 km/h (0 Bft) 98,00 %
22.11.2021 18:32 3,5 C 2,2 C -0,6 C 82 % 1029,2 hPa 0,0 l/m 0 min 0 min 0 W/m 0,0 km/h (0 Bft) 98,08 %
22.11.2021 18:34 3,5 C 2,2 C -0,6 C 83 % 1029,3 hPa 0,0 l/m 0 min 0 min 0 W/m 0,0 km/h (0 Bft) 100,00 %
22.11.2021 18:36 3,4 C 2,2 C -0,6 C 82 % 1029,3 hPa 0,0 l/m 0 min 0 min 0 W/m 0,0 km/h (0 Bft) 96,00 %
22.11.2021 18:38 3,4 C 2,2 C -0,6 C 83 % 1029,3 hPa 0,0 l/m 0 min 0 min 0 W/m 0,0 km/h (0 Bft) 95,74 %
22.11.2021 18:40 3,4 C 2,2 C -0,6 C 83 % 1029,3 hPa 0,0 l/m 0 min 0 min 0 W/m 0,0 km/h (0 Bft) 97,87 %
22.11.2021 18:42 3,3 C 2,2 C -0,6 C 83 % 1029,3 hPa 0,0 l/m 0 min 0 min 0 W/m 0,0 km/h (0 Bft) 97,73 %
22.11.2021 18:44 3,3 C 2,2 C -0,6 C 83 % 1029,3 hPa 0,0 l/m 0 min 0 min 0 W/m 0,0 km/h (0 Bft) 97,87 %
22.11.2021 18:46 3,3 C 1,7 C -0,6 C 83 % 1029,3 hPa 0,0 l/m 0 min 0 min 0 W/m 0,0 km/h (0 Bft) 100,00 %
22.11.2021 18:48 3,3 C 1,7 C -0,6 C 83 % 1029,4 hPa 0,0 l/m 0 min 0 min 0 W/m 0,0 km/h (0 Bft) 97,87 %
22.11.2021 18:50 3,3 C 1,7 C -0,6 C 84 % 1029,4 hPa 0,0 l/m 0 min 0 min 0 W/m 0,0 km/h (0 Bft) 97,73 %
22.11.2021 18:52 3,3 C 1,7 C -0,6 C 84 % 1029,4 hPa 0,0 l/m 0 min 0 min 0 W/m 0,0 km/h (0 Bft) 96,00 %
22.11.2021 18:54 3,2 C 1,7 C -0,6 C 84 % 1029,4 hPa 0,0 l/m 0 min 0 min 0 W/m 0,0 km/h (0 Bft) 97,87 %
22.11.2021 18:56 3,1 C 1,7 C -0,6 C 84 % 1029,4 hPa 0,0 l/m 0 min 0 min 0 W/m 0,0 km/h (0 Bft) 97,73 %
22.11.2021 18:58 3,1 C 1,1 C -0,6 C 84 % 1029,4 hPa 0,0 l/m 0 min 0 min 0 W/m 0,0 km/h (0 Bft) 65,31 %
22.11.2021 19:00 3,1 C 1,1 C -1,1 C 84 % 1029,4 hPa 0,0 l/m 0 min 0 min 0 W/m 0,0 km/h (0 Bft) 84,21 %
22.11.2021 19:02 3,1 C 1,1 C -1,1 C 84 % 1029,5 hPa 0,0 l/m 0 min 0 min 0 W/m 0,0 km/h (0 Bft) 97,37 %
22.11.2021 19:04 3,0 C 1,1 C -1,1 C 84 % 1029,5 hPa 0,0 l/m 0 min 0 min 0 W/m 0,0 km/h (0 Bft) 94,00 %
22.11.2021 19:06 3,0 C 1,1 C -1,1 C 84 % 1029,5 hPa 0,0 l/m 0 min 0 min 0 W/m 0,0 km/h (0 Bft) 95,74 %
22.11.2021 19:08 3,0 C 1,1 C -1,1 C 84 % 1029,5 hPa 0,0 l/m 0 min 0 min 0 W/m 0,0 km/h (0 Bft) 93,62 %
22.11.2021 19:10 2,9 C 1,1 C -1,1 C 84 % 1029,6 hPa 0,0 l/m 0 min 0 min 0 W/m 0,0 km/h (0 Bft) 96,23 %
22.11.2021 19:12 2,9 C 1,1 C -1,1 C 84 % 1029,6 hPa 0,0 l/m 0 min 0 min 0 W/m 0,0 km/h (0 Bft) 96,00 %
22.11.2021 19:14 2,9 C 1,1 C -1,1 C 84 % 1029,6 hPa 0,0 l/m 0 min 0 min 0 W/m 0,0 km/h (0 Bft) 94,59 %
22.11.2021 19:16 2,8 C 1,1 C -1,1 C 84 % 1029,6 hPa 0,0 l/m 0 min 0 min 0 W/m 0,0 km/h (0 Bft) 95,74 %
22.11.2021 19:18 2,8 C 0,6 C -1,1 C 84 % 1029,7 hPa 0,0 l/m 0 min 0 min 0 W/m 0,0 km/h (0 Bft) 96,23 %
22.11.2021 19:20 2,8 C 0,6 C -1,1 C 84 % 1029,6 hPa 0,0 l/m 0 min 0 min 0 W/m 0,0 km/h (0 Bft) 92,00 %
22.11.2021 19:22 2,7 C 0,6 C -1,1 C 84 % 1029,7 hPa 0,0 l/m 0 min 0 min 0 W/m 0,0 km/h (0 Bft) 97,30 %
22.11.2021 19:24 2,6 C 0,6 C -1,1 C 85 % 1029,6 hPa 0,0 l/m 0 min 0 min 0 W/m 0,0 km/h (0 Bft) 95,74 %
22.11.2021 19:26 2,6 C 0,6 C -1,1 C 85 % 1029,6 hPa 0,0 l/m 0 min 0 min 0 W/m 0,0 km/h (0 Bft) 96,30 %
22.11.2021 19:28 2,5 C 0,6 C -1,7 C 85 % 1029,6 hPa 0,0 l/m 0 min 0 min 0 W/m 0,0 km/h (0 Bft) 98,00 %
22.11.2021 19:30 2,5 C 0,6 C -1,7 C 85 % 1029,7 hPa 0,0 l/m 0 min 0 min 0 W/m 0,0 km/h (0 Bft) 97,30 %
22.11.2021 19:32 2,5 C 0,6 C -1,7 C 85 % 1029,8 hPa 0,0 l/m 0 min 0 min 0 W/m 0,0 km/h (0 Bft) 95,74 %
22.11.2021 19:34 2,4 C 0,6 C -1,7 C 85 % 1029,8 hPa 0,0 l/m 0 min 0 min 0 W/m 0,0 km/h (0 Bft) 98,11 %
22.11.2021 19:36 2,4 C 0,6 C -1,7 C 84 % 1029,8 hPa 0,0 l/m 0 min 0 min 0 W/m 0,0 km/h (0 Bft) 95,74 %
22.11.2021 19:38 2,3 C 0,6 C -1,7 C 84 % 1029,8 hPa 0,0 l/m 0 min 0 min 0 W/m 0,0 km/h (0 Bft) 98,00 %
22.11.2021 19:40 2,3 C 0,6 C -1,7 C 84 % 1029,8 hPa 0,0 l/m 0 min 0 min 0 W/m 0,0 km/h (0 Bft) 97,87 %
22.11.2021 19:42 2,2 C 0,6 C -1,7 C 84 % 1029,9 hPa 0,0 l/m 0 min 0 min 0 W/m 0,0 km/h (0 Bft) 95,65 %
22.11.2021 19:44 2,1 C 0,6 C -1,7 C 85 % 1029,8 hPa 0,0 l/m 0 min 0 min 0 W/m 0,0 km/h (0 Bft) 94,59 %
22.11.2021 19:46 2,1 C 0,6 C -1,7 C 85 % 1029,9 hPa 0,0 l/m 0 min 0 min 0 W/m 0,0 km/h (0 Bft) 97,87 %
22.11.2021 19:48 2,1 C 0,6 C -1,7 C 85 % 1029,9 hPa 0,0 l/m 0 min 0 min 0 W/m 0,0 km/h (0 Bft) 95,74 %
22.11.2021 19:50 2,0 C 0,6 C -1,7 C 84 % 1029,9 hPa 0,0 l/m 0 min 0 min 0 W/m 0,0 km/h (0 Bft) 96,30 %
22.11.2021 19:52 2,0 C 0,6 C -1,7 C 85 % 1029,8 hPa 0,0 l/m 0 min 0 min 0 W/m 0,0 km/h (0 Bft) 95,74 %
22.11.2021 19:54 2,0 C 0,6 C -1,7 C 85 % 1029,9 hPa 0,0 l/m 0 min 0 min 0 W/m 0,0 km/h (0 Bft) 93,48 %
22.11.2021 19:56 1,9 C 0,6 C -1,7 C 85 % 1029,9 hPa 0,0 l/m 0 min 0 min 0 W/m 0,0 km/h (0 Bft) 97,50 %
22.11.2021 19:58 1,9 C 0,6 C -1,7 C 85 % 1030,0 hPa 0,0 l/m 0 min 0 min 0 W/m 0,0 km/h (0 Bft) 94,00 %
22.11.2021 20:00 1,9 C 0,6 C -1,7 C 85 % 1030,0 hPa 0,0 l/m 0 min 0 min 0 W/m 0,0 km/h (0 Bft) 95,74 %
22.11.2021 20:02 1,8 C 0,6 C -1,7 C 85 % 1030,0 hPa 0,0 l/m 0 min 0 min 0 W/m 3,2 km/h (1 Bft) 96,00 %
22.11.2021 20:04 1,8 C 0,6 C -1,7 C 85 % 1030,0 hPa 0,0 l/m 0 min 0 min 0 W/m 3,2 km/h (1 Bft) 95,92 %
22.11.2021 20:06 1,8 C 0,6 C -1,7 C 85 % 1030,0 hPa 0,0 l/m 0 min 0 min 0 W/m 0,0 km/h (0 Bft) 94,44 %
22.11.2021 20:08 1,8 C 0,6 C -1,7 C 86 % 1030,1 hPa 0,0 l/m 0 min 0 min 0 W/m 0,0 km/h (0 Bft) 94,34 %
22.11.2021 20:10 1,8 C 0,6 C -1,7 C 86 % 1030,0 hPa 0,0 l/m 0 min 0 min 0 W/m 0,0 km/h (0 Bft) 98,00 %
22.11.2021 20:12 1,7 C 0,6 C -1,7 C 86 % 1030,1 hPa 0,0 l/m 0 min 0 min 0 W/m 0,0 km/h (0 Bft) 97,96 %
22.11.2021 20:14 1,7 C 0,6 C -1,7 C 86 % 1030,1 hPa 0,0 l/m 0 min 0 min 0 W/m 0,0 km/h (0 Bft) 97,14 %
22.11.2021 20:16 1,7 C 0,0 C -1,7 C 86 % 1030,1 hPa 0,0 l/m 0 min 0 min 0 W/m 0,0 km/h (0 Bft) 96,30 %
22.11.2021 20:18 1,6 C 0,0 C -1,7 C 87 % 1030,1 hPa 0,0 l/m 0 min 0 min 0 W/m 0,0 km/h (0 Bft) 100,00 %
22.11.2021 20:20 1,6 C 0,0 C -1,7 C 87 % 1030,2 hPa 0,0 l/m 0 min 0 min 0 W/m 0,0 km/h (0 Bft) 100,00 %
22.11.2021 20:22 1,6 C 0,0 C -1,7 C 87 % 1030,1 hPa 0,0 l/m 0 min 0 min 0 W/m 0,0 km/h (0 Bft) 100,00 %
22.11.2021 20:24 1,5 C 0,0 C -1,7 C 87 % 1030,2 hPa 0,0 l/m 0 min 0 min 0 W/m 0,0 km/h (0 Bft) 97,14 %
22.11.2021 20:26 1,5 C 0,0 C -1,7 C 87 % 1030,2 hPa 0,0 l/m 0 min 0 min 0 W/m 0,0 km/h (0 Bft) 100,00 %
22.11.2021 20:28 1,5 C 0,0 C -1,7 C 87 % 1030,2 hPa 0,0 l/m 0 min 0 min 0 W/m 0,0 km/h (0 Bft) 100,00 %
22.11.2021 20:30 1,5 C 0,0 C -1,7 C 87 % 1030,2 hPa 0,0 l/m 0 min 0 min 0 W/m 0,0 km/h (0 Bft) 100,00 %
22.11.2021 20:32 1,4 C 0,0 C -1,7 C 87 % 1030,3 hPa 0,0 l/m 0 min 0 min 0 W/m 0,0 km/h (0 Bft) 93,88 %
22.11.2021 20:34 1,4 C 0,0 C -1,7 C 87 % 1030,3 hPa 0,0 l/m 0 min 0 min 0 W/m 0,0 km/h (0 Bft) 100,00 %
22.11.2021 20:36 1,4 C 0,0 C -1,7 C 87 % 1030,3 hPa 0,0 l/m 0 min 0 min 0 W/m 0,0 km/h (0 Bft) 96,30 %
22.11.2021 20:38 1,4 C 0,0 C -1,7 C 87 % 1030,3 hPa 0,0 l/m 0 min 0 min 0 W/m 0,0 km/h (0 Bft) 97,87 %
22.11.2021 20:40 1,4 C 0,0 C -1,7 C 87 % 1030,3 hPa 0,0 l/m 0 min 0 min 0 W/m 0,0 km/h (0 Bft) 97,83 %
22.11.2021 20:42 1,4 C 0,0 C -1,7 C 87 % 1030,3 hPa 0,0 l/m 0 min 0 min 0 W/m 0,0 km/h (0 Bft) 97,87 %
22.11.2021 20:44 1,3 C 0,0 C -1,7 C 88 % 1030,2 hPa 0,0 l/m 0 min 0 min 0 W/m 0,0 km/h (0 Bft) 96,00 %
22.11.2021 20:46 1,3 C 0,0 C -1,7 C 88 % 1030,2 hPa 0,0 l/m 0 min 0 min 0 W/m 0,0 km/h (0 Bft) 95,92 %
22.11.2021 20:48 1,3 C 0,0 C -1,7 C 88 % 1030,2 hPa 0,0 l/m 0 min 0 min 0 W/m 0,0 km/h (0 Bft) 94,29 %
22.11.2021 20:50 1,3 C 0,0 C -1,7 C 88 % 1030,2 hPa 0,0 l/m 0 min 0 min 0 W/m 0,0 km/h (0 Bft) 98,15 %
22.11.2021 20:52 1,4 C 0,0 C -1,7 C 88 % 1030,2 hPa 0,0 l/m 0 min 0 min 0 W/m 0,0 km/h (0 Bft) 97,96 %
22.11.2021 20:54 1,3 C 0,0 C -1,7 C 89 % 1030,2 hPa 0,0 l/m 0 min 0 min 0 W/m 0,0 km/h (0 Bft) 97,87 %
22.11.2021 20:56 1,3 C 0,0 C -1,7 C 89 % 1030,2 hPa 0,0 l/m 0 min 0 min 0 W/m 0,0 km/h (0 Bft) 97,96 %
22.11.2021 20:58 1,3 C 0,0 C -1,7 C 89 % 1030,2 hPa 0,0 l/m 0 min 0 min 0 W/m 0,0 km/h (0 Bft) 97,37 %
22.11.2021 21:00 1,3 C 0,0 C -1,7 C 89 % 1030,2 hPa 0,0 l/m 0 min 0 min 0 W/m 0,0 km/h (0 Bft) 100,00 %
22.11.2021 21:02 1,3 C 0,0 C -1,7 C 89 % 1030,2 hPa 0,0 l/m 0 min 0 min 0 W/m 0,0 km/h (0 Bft) 100,00 %
22.11.2021 21:04 1,3 C 0,0 C -1,7 C 89 % 1030,3 hPa 0,0 l/m 0 min 0 min 0 W/m 0,0 km/h (0 Bft) 100,00 %
22.11.2021 21:06 1,2 C 0,0 C -1,7 C 89 % 1030,3 hPa 0,0 l/m 0 min 0 min 0 W/m 0,0 km/h (0 Bft) 97,62 %
22.11.2021 21:08 1,2 C 0,0 C -1,7 C 89 % 1030,2 hPa 0,0 l/m 0 min 0 min 0 W/m 0,0 km/h (0 Bft) 100,00 %
22.11.2021 21:10 1,1 C 0,0 C -1,7 C 89 % 1030,3 hPa 0,0 l/m 0 min 0 min 0 W/m 0,0 km/h (0 Bft) 100,00 %
22.11.2021 21:12 1,1 C 0,0 C -2,2 C 89 % 1030,3 hPa 0,0 l/m 0 min 0 min 0 W/m 0,0 km/h (0 Bft) 97,96 %
22.11.2021 21:14 1,1 C 0,0 C -2,2 C 89 % 1030,3 hPa 0,0 l/m 0 min 0 min 0 W/m 0,0 km/h (0 Bft) 100,00 %
22.11.2021 21:16 1,1 C 0,0 C -2,2 C 89 % 1030,3 hPa 0,0 l/m 0 min 0 min 0 W/m 0,0 km/h (0 Bft) 100,00 %
22.11.2021 21:18 1,0 C 0,0 C -2,2 C 89 % 1030,4 hPa 0,0 l/m 0 min 0 min 0 W/m 0,0 km/h (0 Bft) 100,00 %
22.11.2021 21:20 1,0 C 0,0 C -2,2 C 89 % 1030,4 hPa 0,0 l/m 0 min 0 min 0 W/m 0,0 km/h (0 Bft) 100,00 %
22.11.2021 21:22 1,0 C 0,0 C -2,2 C 89 % 1030,4 hPa 0,0 l/m 0 min 0 min 0 W/m 0,0 km/h (0 Bft) 97,96 %
22.11.2021 21:24 1,0 C -0,6 C -2,2 C 89 % 1030,4 hPa 0,0 l/m 0 min 0 min 0 W/m 0,0 km/h (0 Bft) 95,74 %
22.11.2021 21:26 0,9 C -0,6 C -2,2 C 89 % 1030,4 hPa 0,0 l/m 0 min 0 min 0 W/m 0,0 km/h (0 Bft) 95,24 %
22.11.2021 21:28 0,9 C -0,6 C -2,2 C 89 % 1030,4 hPa 0,0 l/m 0 min 0 min 0 W/m 0,0 km/h (0 Bft) 97,96 %
22.11.2021 21:30 0,9 C -0,6 C -2,2 C 89 % 1030,4 hPa 0,0 l/m 0 min 0 min 0 W/m 0,0 km/h (0 Bft) 97,96 %
22.11.2021 21:32 0,9 C -0,6 C -2,2 C 89 % 1030,4 hPa 0,0 l/m 0 min 0 min 0 W/m 0,0 km/h (0 Bft) 97,87 %
22.11.2021 21:34 0,9 C -0,6 C -2,2 C 89 % 1030,3 hPa 0,0 l/m 0 min 0 min 0 W/m 0,0 km/h (0 Bft) 97,62 %
22.11.2021 21:36 0,8 C -0,6 C -2,2 C 89 % 1030,3 hPa 0,0 l/m 0 min 0 min 0 W/m 0,0 km/h (0 Bft) 98,00 %
22.11.2021 21:38 0,8 C -0,6 C -2,2 C 89 % 1030,2 hPa 0,0 l/m 0 min 0 min 0 W/m 0,0 km/h (0 Bft) 97,92 %
22.11.2021 21:40 0,7 C -0,6 C -2,2 C 89 % 1030,2 hPa 0,0 l/m 0 min 0 min 0 W/m 0,0 km/h (0 Bft) 97,87 %
22.11.2021 21:42 0,7 C -0,6 C -2,2 C 89 % 1030,3 hPa 0,0 l/m 0 min 0 min 0 W/m 0,0 km/h (0 Bft) 97,87 %
22.11.2021 21:44 0,6 C -0,6 C -2,2 C 89 % 1030,3 hPa 0,0 l/m 0 min 0 min 0 W/m 3,2 km/h (1 Bft) 97,62 %
22.11.2021 21:46 0,5 C -0,6 C -2,2 C 89 % 1030,3 hPa 0,0 l/m 0 min 0 min 0 W/m 0,0 km/h (0 Bft) 98,00 %
22.11.2021 21:48 0,5 C -0,6 C -2,2 C 89 % 1030,4 hPa 0,0 l/m 0 min 0 min 0 W/m 0,0 km/h (0 Bft) 80,85 %
22.11.2021 21:50 0,5 C -0,6 C -2,2 C 89 % 1030,3 hPa 0,0 l/m 0 min 0 min 0 W/m 0,0 km/h (0 Bft) 75,00 %
22.11.2021 21:52 0,5 C -0,6 C -2,2 C 89 % 1030,3 hPa 0,0 l/m 0 min 0 min 0 W/m 0,0 km/h (0 Bft) 100,00 %
22.11.2021 21:54 0,5 C -0,6 C -2,2 C 89 % 1030,3 hPa 0,0 l/m 0 min 0 min 0 W/m 0,0 km/h (0 Bft) 100,00 %
22.11.2021 21:56 0,5 C -0,6 C -2,2 C 90 % 1030,3 hPa 0,0 l/m 0 min 0 min 0 W/m 3,2 km/h (1 Bft) 100,00 %
22.11.2021 21:58 0,5 C -0,6 C -2,2 C 90 % 1030,4 hPa 0,0 l/m 0 min 0 min 0 W/m 0,0 km/h (0 Bft) 100,00 %
22.11.2021 22:00 0,5 C -0,6 C -2,2 C 90 % 1030,4 hPa 0,0 l/m 0 min 0 min 0 W/m 0,0 km/h (0 Bft) 100,00 %
22.11.2021 22:02 0,5 C -0,6 C -2,2 C 90 % 1030,4 hPa 0,0 l/m 0 min 0 min 0 W/m 0,0 km/h (0 Bft) 97,44 %
22.11.2021 22:04 0,5 C -0,6 C -2,2 C 90 % 1030,5 hPa 0,0 l/m 0 min 0 min 0 W/m 0,0 km/h (0 Bft) 97,96 %
22.11.2021 22:06 0,6 C -0,6 C -2,2 C 90 % 1030,5 hPa 0,0 l/m 0 min 0 min 0 W/m 0,0 km/h (0 Bft) 97,87 %
22.11.2021 22:08 0,5 C -0,6 C -2,2 C 90 % 1030,5 hPa 0,0 l/m 0 min 0 min 0 W/m 0,0 km/h (0 Bft) 97,87 %
22.11.2021 22:10 0,5 C -0,6 C -2,2 C 90 % 1030,5 hPa 0,0 l/m 0 min 0 min 0 W/m 0,0 km/h (0 Bft) 97,87 %
22.11.2021 22:12 0,5 C -0,6 C -2,2 C 90 % 1030,5 hPa 0,0 l/m 0 min 0 min 0 W/m 0,0 km/h (0 Bft) 97,87 %
22.11.2021 22:14 0,5 C -0,6 C -2,2 C 90 % 1030,5 hPa 0,0 l/m 0 min 0 min 0 W/m 0,0 km/h (0 Bft) 98,11 %
22.11.2021 22:16 0,5 C -0,6 C -2,2 C 90 % 1030,5 hPa 0,0 l/m 0 min 0 min 0 W/m 0,0 km/h (0 Bft) 97,37 %
22.11.2021 22:18 0,5 C -0,6 C -2,2 C 90 % 1030,5 hPa 0,0 l/m 0 min 0 min 0 W/m 0,0 km/h (0 Bft) 97,87 %
22.11.2021 22:20 0,5 C -0,6 C -2,2 C 90 % 1030,5 hPa 0,0 l/m 0 min 0 min 0 W/m 0,0 km/h (0 Bft) 95,92 %
22.11.2021 22:22 0,5 C -0,6 C -2,2 C 91 % 1030,5 hPa 0,0 l/m 0 min 0 min 0 W/m 0,0 km/h (0 Bft) 97,87 %
22.11.2021 22:24 0,5 C -0,6 C -2,2 C 91 % 1030,5 hPa 0,0 l/m 0 min 0 min 0 W/m 0,0 km/h (0 Bft) 95,74 %
22.11.2021 22:26 0,5 C -0,6 C -2,2 C 91 % 1030,5 hPa 0,0 l/m 0 min 0 min 0 W/m 0,0 km/h (0 Bft) 98,11 %
22.11.2021 22:28 0,5 C -0,6 C -2,2 C 91 % 1030,5 hPa 0,0 l/m 0 min 0 min 0 W/m 0,0 km/h (0 Bft) 97,37 %
22.11.2021 22:30 0,5 C -0,6 C -2,2 C 91 % 1030,5 hPa 0,0 l/m 0 min 0 min 0 W/m 0,0 km/h (0 Bft) 95,92 %
22.11.2021 22:32 0,5 C -0,6 C -2,2 C 91 % 1030,5 hPa 0,0 l/m 0 min 0 min 0 W/m 0,0 km/h (0 Bft) 97,87 %
22.11.2021 22:34 0,5 C -0,6 C -2,2 C 91 % 1030,5 hPa 0,0 l/m 0 min 0 min 0 W/m 0,0 km/h (0 Bft) 97,87 %
22.11.2021 22:36 0,5 C -0,6 C -2,2 C 91 % 1030,5 hPa 0,0 l/m 0 min 0 min 0 W/m 0,0 km/h (0 Bft) 98,11 %
22.11.2021 22:38 0,5 C -0,6 C -2,2 C 91 % 1030,6 hPa 0,0 l/m 0 min 0 min 0 W/m 0,0 km/h (0 Bft) 100,00 %
22.11.2021 22:40 0,5 C -1,1 C -2,2 C 91 % 1030,6 hPa 0,0 l/m 0 min 0 min 0 W/m 0,0 km/h (0 Bft) 100,00 %
22.11.2021 22:42 0,4 C -1,1 C -2,2 C 91 % 1030,5 hPa 0,0 l/m 0 min 0 min 0 W/m 0,0 km/h (0 Bft) 100,00 %
22.11.2021 22:44 0,4 C -1,1 C -2,2 C 91 % 1030,5 hPa 0,0 l/m 0 min 0 min 0 W/m 0,0 km/h (0 Bft) 100,00 %
22.11.2021 22:46 0,4 C -1,1 C -2,2 C 91 % 1030,5 hPa 0,0 l/m 0 min 0 min 0 W/m 0,0 km/h (0 Bft) 97,87 %
22.11.2021 22:48 0,4 C -1,1 C -2,2 C 91 % 1030,6 hPa 0,0 l/m 0 min 0 min 0 W/m 0,0 km/h (0 Bft) 100,00 %
22.11.2021 22:50 0,3 C -1,1 C -2,2 C 91 % 1030,6 hPa 0,0 l/m 0 min 0 min 0 W/m 0,0 km/h (0 Bft) 100,00 %
22.11.2021 22:52 0,3 C -1,1 C -2,2 C 91 % 1030,5 hPa 0,0 l/m 0 min 0 min 0 W/m 0,0 km/h (0 Bft) 97,96 %
22.11.2021 22:54 0,3 C -1,1 C -2,2 C 91 % 1030,6 hPa 0,0 l/m 0 min 0 min 0 W/m 0,0 km/h (0 Bft) 97,87 %
22.11.2021 22:56 0,3 C -1,1 C -2,2 C 91 % 1030,6 hPa 0,0 l/m 0 min 0 min 0 W/m 0,0 km/h (0 Bft) 96,30 %
22.11.2021 22:58 0,3 C -1,1 C -2,2 C 91 % 1030,6 hPa 0,0 l/m 0 min 0 min 0 W/m 0,0 km/h (0 Bft) 97,37 %
22.11.2021 23:00 0,3 C -1,1 C -2,2 C 91 % 1030,6 hPa 0,0 l/m 0 min 0 min 0 W/m 0,0 km/h (0 Bft) 97,96 %
22.11.2021 23:02 0,3 C -1,1 C -2,2 C 91 % 1030,7 hPa 0,0 l/m 0 min 0 min 0 W/m 0,0 km/h (0 Bft) 98,00 %
22.11.2021 23:04 0,3 C -1,1 C -2,2 C 91 % 1030,7 hPa 0,0 l/m 0 min 0 min 0 W/m 0,0 km/h (0 Bft) 98,00 %
22.11.2021 23:06 0,2 C -1,1 C -2,2 C 91 % 1030,7 hPa 0,0 l/m 0 min 0 min 0 W/m 0,0 km/h (0 Bft) 94,59 %
22.11.2021 23:08 0,2 C -1,1 C -2,2 C 91 % 1030,7 hPa 0,0 l/m 0 min 0 min 0 W/m 0,0 km/h (0 Bft) 80,85 %
22.11.2021 23:10 0,2 C -1,1 C -2,2 C 91 % 1030,7 hPa 0,0 l/m 0 min 0 min 0 W/m 0,0 km/h (0 Bft) 70,45 %
22.11.2021 23:12 0,2 C -0,6 C -2,2 C 92 % 1030,7 hPa 0,0 l/m 0 min 0 min 0 W/m 0,0 km/h (0 Bft) 98,11 %
22.11.2021 23:14 0,2 C -1,1 C -2,2 C 92 % 1030,7 hPa 0,0 l/m 0 min 0 min 0 W/m 0,0 km/h (0 Bft) 98,00 %
22.11.2021 23:16 0,2 C -0,6 C -2,2 C 91 % 1030,8 hPa 0,0 l/m 0 min 0 min 0 W/m 0,0 km/h (0 Bft) 100,00 %
22.11.2021 23:18 0,2 C -1,1 C -2,2 C 92 % 1030,8 hPa 0,0 l/m 0 min 0 min 0 W/m 0,0 km/h (0 Bft) 97,87 %
22.11.2021 23:20 0,2 C -1,1 C -2,2 C 92 % 1030,8 hPa 0,0 l/m 0 min 0 min 0 W/m 0,0 km/h (0 Bft) 100,00 %
22.11.2021 23:22 0,1 C -1,1 C -2,2 C 92 % 1030,8 hPa 0,0 l/m 0 min 0 min 0 W/m 0,0 km/h (0 Bft) 95,65 %
22.11.2021 23:24 0,1 C -1,1 C -2,2 C 92 % 1030,8 hPa 0,0 l/m 0 min 0 min 0 W/m 0,0 km/h (0 Bft) 100,00 %
22.11.2021 23:26 0,1 C -1,1 C -2,2 C 92 % 1030,9 hPa 0,0 l/m 0 min 0 min 0 W/m 0,0 km/h (0 Bft) 100,00 %
22.11.2021 23:28 0,1 C -1,1 C -2,2 C 92 % 1030,9 hPa 0,0 l/m 0 min 0 min 0 W/m 0,0 km/h (0 Bft) 100,00 %
22.11.2021 23:30 0,1 C -1,1 C -2,8 C 92 % 1030,9 hPa 0,0 l/m 0 min 0 min 0 W/m 0,0 km/h (0 Bft) 100,00 %
22.11.2021 23:32 0,1 C -1,1 C -2,2 C 92 % 1030,9 hPa 0,0 l/m 0 min 0 min 0 W/m 0,0 km/h (0 Bft) 98,00 %
22.11.2021 23:34 0,1 C -1,1 C -2,2 C 92 % 1030,9 hPa 0,0 l/m 0 min 0 min 0 W/m 0,0 km/h (0 Bft) 97,30 %
22.11.2021 23:36 0,0 C -1,1 C -2,2 C 92 % 1031,0 hPa 0,0 l/m 0 min 0 min 0 W/m 0,0 km/h (0 Bft) 97,83 %
22.11.2021 23:38 0,0 C -1,1 C -2,8 C 92 % 1031,1 hPa 0,0 l/m 0 min 0 min 0 W/m 0,0 km/h (0 Bft) 98,15 %
22.11.2021 23:40 0,0 C -1,1 C -2,8 C 92 % 1031,1 hPa 0,0 l/m 0 min 0 min 0 W/m 0,0 km/h (0 Bft) 93,62 %
22.11.2021 23:42 0,0 C -1,1 C -2,8 C 92 % 1031,0 hPa 0,0 l/m 0 min 0 min 0 W/m 0,0 km/h (0 Bft) 97,87 %
22.11.2021 23:44 0,0 C -1,1 C -2,8 C 92 % 1031,0 hPa 0,0 l/m 0 min 0 min 0 W/m 0,0 km/h (0 Bft) 95,74 %
22.11.2021 23:46 0,0 C -1,1 C -2,2 C 92 % 1031,0 hPa 0,0 l/m 0 min 0 min 0 W/m 0,0 km/h (0 Bft) 97,83 %
22.11.2021 23:48 0,0 C -1,1 C -2,2 C 92 % 1031,0 hPa 0,0 l/m 0 min 0 min 0 W/m 0,0 km/h (0 Bft) 95,74 %
22.11.2021 23:50 0,0 C -1,1 C -2,2 C 92 % 1031,0 hPa 0,0 l/m 0 min 0 min 0 W/m 0,0 km/h (0 Bft) 95,74 %
22.11.2021 23:52 0,0 C -1,1 C -2,2 C 92 % 1031,1 hPa 0,0 l/m 0 min 0 min 0 W/m 0,0 km/h (0 Bft) 95,74 %
22.11.2021 23:54 0,0 C -1,1 C -2,2 C 92 % 1031,1 hPa 0,0 l/m 0 min 0 min 0 W/m 0,0 km/h (0 Bft) 95,74 %
22.11.2021 23:56 0,0 C -1,1 C -2,2 C 92 % 1031,1 hPa 0,0 l/m 0 min 0 min 0 W/m 0,0 km/h (0 Bft) 93,48 %
22.11.2021 23:58 0,0 C -1,1 C -2,2 C 92 % 1031,1 hPa 0,0 l/m 0 min 0 min 0 W/m 0,0 km/h (0 Bft) 93,62 %
_ Min-Zeit 23:36 22:40 23:30 14:22 00:00 - - - - 00:04 11:24
Minimum _ 0,0 C -1,1 C -2,8 C 70 % 1017,6 hPa - - - - 0,0 km/h (0 Bft) 38,89 %
_ Max-Zeit 14:18 13:10 11:26 02:14 23:38 01:46 10:20 00:00 13:12 04:24 00:00
Maximum _ 7,5 C 16,7 C 5,0 C 96 % 1031,1 hPa 0,2 l/m 2 min 0 min 332 W/m 32,2 km/h
O-NO (5 Bft)
100,00 %
Durchschnitt _ 4,2 C 4,0 C 1,8 C 88 % 1025,8 hPa #0,2 l/m #2:40 h #0 min. 103 W/m 6,5 km/h (2 Bft) 97,02 %
© 2021 W. Hausmann